<?xml version="1.0" encoding="UTF-8" standalone="no" ?>
<gpx xmlns="http://www.topografix.com/GPX/1/1" xmlns:xsi="http://www.w3.org/2001/XMLSchema-instance" xsi:schemaLocation="http://www.topografix.com/GPX/1/1 http://www.topografix.com/GPX/1/1/gpx.xsd" version="1.1" creator="VisuGPX - https://www.visugpx.com">
  <metadata>
    <name>RSPFY-bois de Rochefort</name>
    <desc><![CDATA[marche nordique dans le bois de Rochefort partant du carrefour de Luynes en passant par le point de vue sur la vallée (161m), le carrefour des Jumelles et le carrefour Elisabeth.]]></desc>
  </metadata>
  <trk>
    <name><![CDATA[2023-01-31 09:00]]></name>
    <desc><![CDATA[<p>Heure de départ: 09:00 31 janv. 2023<br/>Heure d'arrivée: 11:46 31 janv. 2023<br/>Distance: 11,8 km (02:46)<br/>Temps déplacement: 02:18<br/>Vitesse moyenne: 4,28 km/h<br/>Vitesse moyenne mouv.: 5,13 km/h<br/>Vitesse Max.: 7,5 km/h<br/>Altitude minimale: 99 m<br/>Altitude maximale: 161 m<br/>Vitesse de montée: 219,5 m/h<br/>Vitesse de descente: -233,7 m/h<br/>Gain d'altitude: 307 m<br/>Perte d'altitude: -308 m<br/>Temps de montée: 01:24<br/>Temps de descente: 01:19<br/></p><hr align="center" width="480" style="height: 2px; width: 517px"/>]]></desc>
    <trkseg>
      <trkpt lat="48.59181" lon="1.96581">
        <ele>116.5</ele>
        <time>2023-01-31T08:00:46Z</time>
      </trkpt>
      <trkpt lat="48.59175" lon="1.96593">
        <ele>116.3</ele>
        <time>2023-01-31T08:03:14Z</time>
      </trkpt>
      <trkpt lat="48.59166" lon="1.96596">
        <ele>115.9</ele>
        <time>2023-01-31T08:03:23Z</time>
      </trkpt>
      <trkpt lat="48.59156" lon="1.96596">
        <ele>115.4</ele>
        <time>2023-01-31T08:03:34Z</time>
      </trkpt>
      <trkpt lat="48.59151" lon="1.96608">
        <ele>115.4</ele>
        <time>2023-01-31T08:03:44Z</time>
      </trkpt>
      <trkpt lat="48.59154" lon="1.96621">
        <ele>115.4</ele>
        <time>2023-01-31T08:03:54Z</time>
      </trkpt>
      <trkpt lat="48.59154" lon="1.96636">
        <ele>115.1</ele>
        <time>2023-01-31T08:04:04Z</time>
      </trkpt>
      <trkpt lat="48.59155" lon="1.96651">
        <ele>115.2</ele>
        <time>2023-01-31T08:04:12Z</time>
      </trkpt>
      <trkpt lat="48.59155" lon="1.96665">
        <ele>115.1</ele>
        <time>2023-01-31T08:04:20Z</time>
      </trkpt>
      <trkpt lat="48.59157" lon="1.96679">
        <ele>115.3</ele>
        <time>2023-01-31T08:04:28Z</time>
      </trkpt>
      <trkpt lat="48.59157" lon="1.96693">
        <ele>115.3</ele>
        <time>2023-01-31T08:04:36Z</time>
      </trkpt>
      <trkpt lat="48.59157" lon="1.96708">
        <ele>115.3</ele>
        <time>2023-01-31T08:04:48Z</time>
      </trkpt>
      <trkpt lat="48.59149" lon="1.96715">
        <ele>114.7</ele>
        <time>2023-01-31T08:05:05Z</time>
      </trkpt>
      <trkpt lat="48.59146" lon="1.96729">
        <ele>114.6</ele>
        <time>2023-01-31T08:05:16Z</time>
      </trkpt>
      <trkpt lat="48.59144" lon="1.96744">
        <ele>114.6</ele>
        <time>2023-01-31T08:05:55Z</time>
      </trkpt>
      <trkpt lat="48.59138" lon="1.96756">
        <ele>114.2</ele>
        <time>2023-01-31T08:06:02Z</time>
      </trkpt>
      <trkpt lat="48.59133" lon="1.96769">
        <ele>114.3</ele>
        <time>2023-01-31T08:06:09Z</time>
      </trkpt>
      <trkpt lat="48.5913" lon="1.96783">
        <ele>114.4</ele>
        <time>2023-01-31T08:06:18Z</time>
      </trkpt>
      <trkpt lat="48.59126" lon="1.96796">
        <ele>114.1</ele>
        <time>2023-01-31T08:06:26Z</time>
      </trkpt>
      <trkpt lat="48.59122" lon="1.96809">
        <ele>113.8</ele>
        <time>2023-01-31T08:06:34Z</time>
      </trkpt>
      <trkpt lat="48.59117" lon="1.96821">
        <ele>113.4</ele>
        <time>2023-01-31T08:06:42Z</time>
      </trkpt>
      <trkpt lat="48.59112" lon="1.96834">
        <ele>113.1</ele>
        <time>2023-01-31T08:06:50Z</time>
      </trkpt>
      <trkpt lat="48.59109" lon="1.96847">
        <ele>113</ele>
        <time>2023-01-31T08:06:57Z</time>
      </trkpt>
      <trkpt lat="48.59106" lon="1.96862">
        <ele>113</ele>
        <time>2023-01-31T08:07:05Z</time>
      </trkpt>
      <trkpt lat="48.59103" lon="1.96875">
        <ele>113</ele>
        <time>2023-01-31T08:07:12Z</time>
      </trkpt>
      <trkpt lat="48.59099" lon="1.96888">
        <ele>113</ele>
        <time>2023-01-31T08:07:18Z</time>
      </trkpt>
      <trkpt lat="48.59096" lon="1.96903">
        <ele>113.2</ele>
        <time>2023-01-31T08:07:26Z</time>
      </trkpt>
      <trkpt lat="48.59091" lon="1.96916">
        <ele>113.3</ele>
        <time>2023-01-31T08:07:33Z</time>
      </trkpt>
      <trkpt lat="48.59088" lon="1.96931">
        <ele>113.2</ele>
        <time>2023-01-31T08:07:41Z</time>
      </trkpt>
      <trkpt lat="48.59084" lon="1.96943">
        <ele>113</ele>
        <time>2023-01-31T08:07:47Z</time>
      </trkpt>
      <trkpt lat="48.59079" lon="1.96957">
        <ele>113</ele>
        <time>2023-01-31T08:07:54Z</time>
      </trkpt>
      <trkpt lat="48.59074" lon="1.9697">
        <ele>113</ele>
        <time>2023-01-31T08:08:00Z</time>
      </trkpt>
      <trkpt lat="48.59072" lon="1.96984">
        <ele>113</ele>
        <time>2023-01-31T08:08:06Z</time>
      </trkpt>
      <trkpt lat="48.59069" lon="1.96998">
        <ele>113</ele>
        <time>2023-01-31T08:08:12Z</time>
      </trkpt>
      <trkpt lat="48.59067" lon="1.97012">
        <ele>113.2</ele>
        <time>2023-01-31T08:08:18Z</time>
      </trkpt>
      <trkpt lat="48.59065" lon="1.97025">
        <ele>113.3</ele>
        <time>2023-01-31T08:08:24Z</time>
      </trkpt>
      <trkpt lat="48.59063" lon="1.9704">
        <ele>113.3</ele>
        <time>2023-01-31T08:08:32Z</time>
      </trkpt>
      <trkpt lat="48.59059" lon="1.97054">
        <ele>113.1</ele>
        <time>2023-01-31T08:08:38Z</time>
      </trkpt>
      <trkpt lat="48.59057" lon="1.97069">
        <ele>113</ele>
        <time>2023-01-31T08:08:45Z</time>
      </trkpt>
      <trkpt lat="48.59054" lon="1.97083">
        <ele>113</ele>
        <time>2023-01-31T08:08:52Z</time>
      </trkpt>
      <trkpt lat="48.59051" lon="1.97097">
        <ele>113</ele>
        <time>2023-01-31T08:08:59Z</time>
      </trkpt>
      <trkpt lat="48.59047" lon="1.97112">
        <ele>113</ele>
        <time>2023-01-31T08:09:05Z</time>
      </trkpt>
      <trkpt lat="48.59044" lon="1.97126">
        <ele>113</ele>
        <time>2023-01-31T08:09:12Z</time>
      </trkpt>
      <trkpt lat="48.59042" lon="1.97141">
        <ele>113</ele>
        <time>2023-01-31T08:09:18Z</time>
      </trkpt>
      <trkpt lat="48.59038" lon="1.97156">
        <ele>113</ele>
        <time>2023-01-31T08:09:25Z</time>
      </trkpt>
      <trkpt lat="48.59037" lon="1.9717">
        <ele>113</ele>
        <time>2023-01-31T08:09:31Z</time>
      </trkpt>
      <trkpt lat="48.59033" lon="1.97183">
        <ele>113</ele>
        <time>2023-01-31T08:09:38Z</time>
      </trkpt>
      <trkpt lat="48.59029" lon="1.97198">
        <ele>112.9</ele>
        <time>2023-01-31T08:09:45Z</time>
      </trkpt>
      <trkpt lat="48.59027" lon="1.97211">
        <ele>112.4</ele>
        <time>2023-01-31T08:09:51Z</time>
      </trkpt>
      <trkpt lat="48.59024" lon="1.97226">
        <ele>112</ele>
        <time>2023-01-31T08:09:57Z</time>
      </trkpt>
      <trkpt lat="48.59025" lon="1.9724">
        <ele>112</ele>
        <time>2023-01-31T08:10:04Z</time>
      </trkpt>
      <trkpt lat="48.59029" lon="1.97254">
        <ele>112.1</ele>
        <time>2023-01-31T08:10:11Z</time>
      </trkpt>
      <trkpt lat="48.59036" lon="1.97265">
        <ele>112.3</ele>
        <time>2023-01-31T08:10:17Z</time>
      </trkpt>
      <trkpt lat="48.59042" lon="1.97275">
        <ele>112.5</ele>
        <time>2023-01-31T08:10:23Z</time>
      </trkpt>
      <trkpt lat="48.59051" lon="1.97281">
        <ele>112.8</ele>
        <time>2023-01-31T08:10:29Z</time>
      </trkpt>
      <trkpt lat="48.59059" lon="1.97287">
        <ele>113</ele>
        <time>2023-01-31T08:10:35Z</time>
      </trkpt>
      <trkpt lat="48.59067" lon="1.97295">
        <ele>113.3</ele>
        <time>2023-01-31T08:10:42Z</time>
      </trkpt>
      <trkpt lat="48.59076" lon="1.973">
        <ele>113.6</ele>
        <time>2023-01-31T08:10:47Z</time>
      </trkpt>
      <trkpt lat="48.59084" lon="1.97306">
        <ele>114</ele>
        <time>2023-01-31T08:10:52Z</time>
      </trkpt>
      <trkpt lat="48.59092" lon="1.97313">
        <ele>114</ele>
        <time>2023-01-31T08:10:59Z</time>
      </trkpt>
      <trkpt lat="48.591" lon="1.97322">
        <ele>114</ele>
        <time>2023-01-31T08:11:06Z</time>
      </trkpt>
      <trkpt lat="48.59108" lon="1.9733">
        <ele>114</ele>
        <time>2023-01-31T08:11:12Z</time>
      </trkpt>
      <trkpt lat="48.59115" lon="1.97339">
        <ele>114.1</ele>
        <time>2023-01-31T08:11:19Z</time>
      </trkpt>
      <trkpt lat="48.59124" lon="1.97346">
        <ele>114.5</ele>
        <time>2023-01-31T08:11:25Z</time>
      </trkpt>
      <trkpt lat="48.59133" lon="1.97354">
        <ele>114.8</ele>
        <time>2023-01-31T08:11:33Z</time>
      </trkpt>
      <trkpt lat="48.59142" lon="1.97361">
        <ele>115.1</ele>
        <time>2023-01-31T08:11:39Z</time>
      </trkpt>
      <trkpt lat="48.5915" lon="1.97369">
        <ele>115.7</ele>
        <time>2023-01-31T08:11:46Z</time>
      </trkpt>
      <trkpt lat="48.59159" lon="1.97377">
        <ele>116.3</ele>
        <time>2023-01-31T08:11:53Z</time>
      </trkpt>
      <trkpt lat="48.59168" lon="1.97381">
        <ele>116.8</ele>
        <time>2023-01-31T08:11:59Z</time>
      </trkpt>
      <trkpt lat="48.59175" lon="1.97391">
        <ele>117.4</ele>
        <time>2023-01-31T08:12:07Z</time>
      </trkpt>
      <trkpt lat="48.59184" lon="1.97398">
        <ele>118</ele>
        <time>2023-01-31T08:12:14Z</time>
      </trkpt>
      <trkpt lat="48.59193" lon="1.97404">
        <ele>118.5</ele>
        <time>2023-01-31T08:12:20Z</time>
      </trkpt>
      <trkpt lat="48.59201" lon="1.9741">
        <ele>119.2</ele>
        <time>2023-01-31T08:12:26Z</time>
      </trkpt>
      <trkpt lat="48.5921" lon="1.97416">
        <ele>120.1</ele>
        <time>2023-01-31T08:12:32Z</time>
      </trkpt>
      <trkpt lat="48.59219" lon="1.97422">
        <ele>121</ele>
        <time>2023-01-31T08:12:38Z</time>
      </trkpt>
      <trkpt lat="48.59229" lon="1.97425">
        <ele>121.5</ele>
        <time>2023-01-31T08:12:44Z</time>
      </trkpt>
      <trkpt lat="48.59239" lon="1.97426">
        <ele>121.9</ele>
        <time>2023-01-31T08:12:50Z</time>
      </trkpt>
      <trkpt lat="48.59248" lon="1.97424">
        <ele>122.2</ele>
        <time>2023-01-31T08:12:57Z</time>
      </trkpt>
      <trkpt lat="48.59257" lon="1.97422">
        <ele>123</ele>
        <time>2023-01-31T08:13:05Z</time>
      </trkpt>
      <trkpt lat="48.59266" lon="1.97421">
        <ele>123.9</ele>
        <time>2023-01-31T08:13:12Z</time>
      </trkpt>
      <trkpt lat="48.59276" lon="1.97419">
        <ele>124.8</ele>
        <time>2023-01-31T08:13:20Z</time>
      </trkpt>
      <trkpt lat="48.59286" lon="1.97417">
        <ele>125.6</ele>
        <time>2023-01-31T08:13:28Z</time>
      </trkpt>
      <trkpt lat="48.59295" lon="1.97417">
        <ele>126.3</ele>
        <time>2023-01-31T08:13:35Z</time>
      </trkpt>
      <trkpt lat="48.59305" lon="1.97419">
        <ele>127.2</ele>
        <time>2023-01-31T08:13:43Z</time>
      </trkpt>
      <trkpt lat="48.59314" lon="1.97419">
        <ele>127.8</ele>
        <time>2023-01-31T08:13:50Z</time>
      </trkpt>
      <trkpt lat="48.59324" lon="1.97419">
        <ele>128.5</ele>
        <time>2023-01-31T08:13:58Z</time>
      </trkpt>
      <trkpt lat="48.59333" lon="1.97419">
        <ele>129.2</ele>
        <time>2023-01-31T08:14:05Z</time>
      </trkpt>
      <trkpt lat="48.59343" lon="1.97419">
        <ele>129.5</ele>
        <time>2023-01-31T08:14:13Z</time>
      </trkpt>
      <trkpt lat="48.59353" lon="1.97419">
        <ele>129.9</ele>
        <time>2023-01-31T08:14:21Z</time>
      </trkpt>
      <trkpt lat="48.59362" lon="1.97418">
        <ele>130.2</ele>
        <time>2023-01-31T08:14:28Z</time>
      </trkpt>
      <trkpt lat="48.59373" lon="1.97418">
        <ele>130.9</ele>
        <time>2023-01-31T08:14:36Z</time>
      </trkpt>
      <trkpt lat="48.59383" lon="1.97419">
        <ele>131.7</ele>
        <time>2023-01-31T08:14:43Z</time>
      </trkpt>
      <trkpt lat="48.59393" lon="1.9742">
        <ele>132.5</ele>
        <time>2023-01-31T08:14:49Z</time>
      </trkpt>
      <trkpt lat="48.59402" lon="1.97423">
        <ele>133.3</ele>
        <time>2023-01-31T08:14:57Z</time>
      </trkpt>
      <trkpt lat="48.59412" lon="1.97423">
        <ele>133.9</ele>
        <time>2023-01-31T08:15:04Z</time>
      </trkpt>
      <trkpt lat="48.59421" lon="1.97423">
        <ele>134.5</ele>
        <time>2023-01-31T08:15:10Z</time>
      </trkpt>
      <trkpt lat="48.59431" lon="1.97424">
        <ele>135.3</ele>
        <time>2023-01-31T08:15:18Z</time>
      </trkpt>
      <trkpt lat="48.59441" lon="1.97423">
        <ele>136</ele>
        <time>2023-01-31T08:15:28Z</time>
      </trkpt>
      <trkpt lat="48.5945" lon="1.97428">
        <ele>136.7</ele>
        <time>2023-01-31T08:15:36Z</time>
      </trkpt>
      <trkpt lat="48.59459" lon="1.97432">
        <ele>137.3</ele>
        <time>2023-01-31T08:15:54Z</time>
      </trkpt>
      <trkpt lat="48.59468" lon="1.97438">
        <ele>137.8</ele>
        <time>2023-01-31T08:16:50Z</time>
      </trkpt>
      <trkpt lat="48.5947" lon="1.97452">
        <ele>138.5</ele>
        <time>2023-01-31T08:17:00Z</time>
      </trkpt>
      <trkpt lat="48.59467" lon="1.97466">
        <ele>139.4</ele>
        <time>2023-01-31T08:17:08Z</time>
      </trkpt>
      <trkpt lat="48.59469" lon="1.97479">
        <ele>140.2</ele>
        <time>2023-01-31T08:17:17Z</time>
      </trkpt>
      <trkpt lat="48.59473" lon="1.97493">
        <ele>140.7</ele>
        <time>2023-01-31T08:17:26Z</time>
      </trkpt>
      <trkpt lat="48.59474" lon="1.97507">
        <ele>140.9</ele>
        <time>2023-01-31T08:17:33Z</time>
      </trkpt>
      <trkpt lat="48.59472" lon="1.97522">
        <ele>141</ele>
        <time>2023-01-31T08:17:41Z</time>
      </trkpt>
      <trkpt lat="48.59466" lon="1.97535">
        <ele>141.5</ele>
        <time>2023-01-31T08:17:47Z</time>
      </trkpt>
      <trkpt lat="48.5946" lon="1.97546">
        <ele>142.4</ele>
        <time>2023-01-31T08:17:55Z</time>
      </trkpt>
      <trkpt lat="48.59453" lon="1.97557">
        <ele>143.5</ele>
        <time>2023-01-31T08:18:03Z</time>
      </trkpt>
      <trkpt lat="48.59447" lon="1.9757">
        <ele>144.3</ele>
        <time>2023-01-31T08:18:11Z</time>
      </trkpt>
      <trkpt lat="48.59442" lon="1.97584">
        <ele>145.2</ele>
        <time>2023-01-31T08:18:19Z</time>
      </trkpt>
      <trkpt lat="48.59438" lon="1.97597">
        <ele>146</ele>
        <time>2023-01-31T08:18:27Z</time>
      </trkpt>
      <trkpt lat="48.59434" lon="1.97609">
        <ele>146.7</ele>
        <time>2023-01-31T08:18:35Z</time>
      </trkpt>
      <trkpt lat="48.5943" lon="1.97622">
        <ele>147.7</ele>
        <time>2023-01-31T08:18:43Z</time>
      </trkpt>
      <trkpt lat="48.59429" lon="1.97636">
        <ele>148.5</ele>
        <time>2023-01-31T08:18:52Z</time>
      </trkpt>
      <trkpt lat="48.59426" lon="1.97651">
        <ele>149.8</ele>
        <time>2023-01-31T08:19:00Z</time>
      </trkpt>
      <trkpt lat="48.59428" lon="1.97665">
        <ele>150.6</ele>
        <time>2023-01-31T08:19:07Z</time>
      </trkpt>
      <trkpt lat="48.59429" lon="1.97679">
        <ele>151.8</ele>
        <time>2023-01-31T08:19:14Z</time>
      </trkpt>
      <trkpt lat="48.5943" lon="1.97694">
        <ele>153</ele>
        <time>2023-01-31T08:19:22Z</time>
      </trkpt>
      <trkpt lat="48.59434" lon="1.97708">
        <ele>153.7</ele>
        <time>2023-01-31T08:19:31Z</time>
      </trkpt>
      <trkpt lat="48.59437" lon="1.97721">
        <ele>154.5</ele>
        <time>2023-01-31T08:19:39Z</time>
      </trkpt>
      <trkpt lat="48.59435" lon="1.97736">
        <ele>155.5</ele>
        <time>2023-01-31T08:19:48Z</time>
      </trkpt>
      <trkpt lat="48.59425" lon="1.9774">
        <ele>156.2</ele>
        <time>2023-01-31T08:20:00Z</time>
      </trkpt>
      <trkpt lat="48.59416" lon="1.97735">
        <ele>156.5</ele>
        <time>2023-01-31T08:20:08Z</time>
      </trkpt>
      <trkpt lat="48.59407" lon="1.97731">
        <ele>156.7</ele>
        <time>2023-01-31T08:20:15Z</time>
      </trkpt>
      <trkpt lat="48.59398" lon="1.97724">
        <ele>156.7</ele>
        <time>2023-01-31T08:20:22Z</time>
      </trkpt>
      <trkpt lat="48.5939" lon="1.97718">
        <ele>156.8</ele>
        <time>2023-01-31T08:20:29Z</time>
      </trkpt>
      <trkpt lat="48.59381" lon="1.97712">
        <ele>156.6</ele>
        <time>2023-01-31T08:20:37Z</time>
      </trkpt>
      <trkpt lat="48.59371" lon="1.97707">
        <ele>156.5</ele>
        <time>2023-01-31T08:20:46Z</time>
      </trkpt>
      <trkpt lat="48.59362" lon="1.97708">
        <ele>156.5</ele>
        <time>2023-01-31T08:20:53Z</time>
      </trkpt>
      <trkpt lat="48.59354" lon="1.97717">
        <ele>156.5</ele>
        <time>2023-01-31T08:21:02Z</time>
      </trkpt>
      <trkpt lat="48.59348" lon="1.9773">
        <ele>156.5</ele>
        <time>2023-01-31T08:21:10Z</time>
      </trkpt>
      <trkpt lat="48.59344" lon="1.97742">
        <ele>156.4</ele>
        <time>2023-01-31T08:21:18Z</time>
      </trkpt>
      <trkpt lat="48.59339" lon="1.97754">
        <ele>156.2</ele>
        <time>2023-01-31T08:21:26Z</time>
      </trkpt>
      <trkpt lat="48.59338" lon="1.97769">
        <ele>156.2</ele>
        <time>2023-01-31T08:21:34Z</time>
      </trkpt>
      <trkpt lat="48.5934" lon="1.97782">
        <ele>156.2</ele>
        <time>2023-01-31T08:21:41Z</time>
      </trkpt>
      <trkpt lat="48.59343" lon="1.97796">
        <ele>156.3</ele>
        <time>2023-01-31T08:21:50Z</time>
      </trkpt>
      <trkpt lat="48.59345" lon="1.9781">
        <ele>156.3</ele>
        <time>2023-01-31T08:21:57Z</time>
      </trkpt>
      <trkpt lat="48.59348" lon="1.97824">
        <ele>156.2</ele>
        <time>2023-01-31T08:22:04Z</time>
      </trkpt>
      <trkpt lat="48.59352" lon="1.97838">
        <ele>156.2</ele>
        <time>2023-01-31T08:22:11Z</time>
      </trkpt>
      <trkpt lat="48.59354" lon="1.97853">
        <ele>156.2</ele>
        <time>2023-01-31T08:22:18Z</time>
      </trkpt>
      <trkpt lat="48.59356" lon="1.97867">
        <ele>156.1</ele>
        <time>2023-01-31T08:22:25Z</time>
      </trkpt>
      <trkpt lat="48.59359" lon="1.97879">
        <ele>156.7</ele>
        <time>2023-01-31T08:22:32Z</time>
      </trkpt>
      <trkpt lat="48.59361" lon="1.97893">
        <ele>156.8</ele>
        <time>2023-01-31T08:22:39Z</time>
      </trkpt>
      <trkpt lat="48.59361" lon="1.97907">
        <ele>156.3</ele>
        <time>2023-01-31T08:22:46Z</time>
      </trkpt>
      <trkpt lat="48.5936" lon="1.97922">
        <ele>156</ele>
        <time>2023-01-31T08:22:54Z</time>
      </trkpt>
      <trkpt lat="48.59359" lon="1.97936">
        <ele>156.3</ele>
        <time>2023-01-31T08:23:00Z</time>
      </trkpt>
      <trkpt lat="48.59358" lon="1.9795">
        <ele>156.7</ele>
        <time>2023-01-31T08:23:07Z</time>
      </trkpt>
      <trkpt lat="48.59356" lon="1.97965">
        <ele>157</ele>
        <time>2023-01-31T08:23:14Z</time>
      </trkpt>
      <trkpt lat="48.59356" lon="1.97979">
        <ele>157.3</ele>
        <time>2023-01-31T08:23:21Z</time>
      </trkpt>
      <trkpt lat="48.59352" lon="1.97992">
        <ele>156.9</ele>
        <time>2023-01-31T08:23:29Z</time>
      </trkpt>
      <trkpt lat="48.59347" lon="1.98005">
        <ele>156.5</ele>
        <time>2023-01-31T08:23:37Z</time>
      </trkpt>
      <trkpt lat="48.59348" lon="1.98019">
        <ele>156.6</ele>
        <time>2023-01-31T08:24:25Z</time>
      </trkpt>
      <trkpt lat="48.59356" lon="1.98028">
        <ele>157.4</ele>
        <time>2023-01-31T08:24:35Z</time>
      </trkpt>
      <trkpt lat="48.59359" lon="1.98041">
        <ele>156.9</ele>
        <time>2023-01-31T08:24:43Z</time>
      </trkpt>
      <trkpt lat="48.59366" lon="1.98051">
        <ele>156.5</ele>
        <time>2023-01-31T08:24:52Z</time>
      </trkpt>
      <trkpt lat="48.59374" lon="1.9806">
        <ele>156.2</ele>
        <time>2023-01-31T08:25:01Z</time>
      </trkpt>
      <trkpt lat="48.5938" lon="1.9807">
        <ele>155.8</ele>
        <time>2023-01-31T08:25:08Z</time>
      </trkpt>
      <trkpt lat="48.59388" lon="1.98079">
        <ele>156.1</ele>
        <time>2023-01-31T08:25:16Z</time>
      </trkpt>
      <trkpt lat="48.59398" lon="1.98084">
        <ele>155.9</ele>
        <time>2023-01-31T08:25:23Z</time>
      </trkpt>
      <trkpt lat="48.59408" lon="1.98089">
        <ele>155.5</ele>
        <time>2023-01-31T08:25:30Z</time>
      </trkpt>
      <trkpt lat="48.59417" lon="1.98086">
        <ele>155.8</ele>
        <time>2023-01-31T08:25:36Z</time>
      </trkpt>
      <trkpt lat="48.59426" lon="1.98078">
        <ele>156.6</ele>
        <time>2023-01-31T08:25:43Z</time>
      </trkpt>
      <trkpt lat="48.59434" lon="1.98073">
        <ele>157.1</ele>
        <time>2023-01-31T08:25:48Z</time>
      </trkpt>
      <trkpt lat="48.59443" lon="1.98068">
        <ele>157.5</ele>
        <time>2023-01-31T08:25:54Z</time>
      </trkpt>
      <trkpt lat="48.59451" lon="1.98058">
        <ele>157.9</ele>
        <time>2023-01-31T08:26:01Z</time>
      </trkpt>
      <trkpt lat="48.59459" lon="1.98049">
        <ele>158.2</ele>
        <time>2023-01-31T08:26:08Z</time>
      </trkpt>
      <trkpt lat="48.59466" lon="1.98039">
        <ele>158.6</ele>
        <time>2023-01-31T08:26:15Z</time>
      </trkpt>
      <trkpt lat="48.59473" lon="1.9803">
        <ele>158.9</ele>
        <time>2023-01-31T08:26:22Z</time>
      </trkpt>
      <trkpt lat="48.59481" lon="1.9802">
        <ele>158.7</ele>
        <time>2023-01-31T08:26:29Z</time>
      </trkpt>
      <trkpt lat="48.59488" lon="1.9801">
        <ele>158.4</ele>
        <time>2023-01-31T08:26:35Z</time>
      </trkpt>
      <trkpt lat="48.59497" lon="1.98003">
        <ele>158.1</ele>
        <time>2023-01-31T08:26:43Z</time>
      </trkpt>
      <trkpt lat="48.59506" lon="1.98">
        <ele>158</ele>
        <time>2023-01-31T08:26:49Z</time>
      </trkpt>
      <trkpt lat="48.59516" lon="1.98003">
        <ele>157.9</ele>
        <time>2023-01-31T08:26:57Z</time>
      </trkpt>
      <trkpt lat="48.59524" lon="1.98009">
        <ele>157.7</ele>
        <time>2023-01-31T08:27:03Z</time>
      </trkpt>
      <trkpt lat="48.59528" lon="1.98022">
        <ele>157.2</ele>
        <time>2023-01-31T08:27:12Z</time>
      </trkpt>
      <trkpt lat="48.59527" lon="1.98036">
        <ele>157</ele>
        <time>2023-01-31T08:27:20Z</time>
      </trkpt>
      <trkpt lat="48.59529" lon="1.98051">
        <ele>157</ele>
        <time>2023-01-31T08:27:28Z</time>
      </trkpt>
      <trkpt lat="48.59528" lon="1.98066">
        <ele>157</ele>
        <time>2023-01-31T08:27:36Z</time>
      </trkpt>
      <trkpt lat="48.59529" lon="1.98081">
        <ele>157</ele>
        <time>2023-01-31T08:27:44Z</time>
      </trkpt>
      <trkpt lat="48.59532" lon="1.98094">
        <ele>156.1</ele>
        <time>2023-01-31T08:27:51Z</time>
      </trkpt>
      <trkpt lat="48.59537" lon="1.98107">
        <ele>155.3</ele>
        <time>2023-01-31T08:27:58Z</time>
      </trkpt>
      <trkpt lat="48.59542" lon="1.98119">
        <ele>154.6</ele>
        <time>2023-01-31T08:28:04Z</time>
      </trkpt>
      <trkpt lat="48.59546" lon="1.98135">
        <ele>153.9</ele>
        <time>2023-01-31T08:28:11Z</time>
      </trkpt>
      <trkpt lat="48.5955" lon="1.98148">
        <ele>153.4</ele>
        <time>2023-01-31T08:28:17Z</time>
      </trkpt>
      <trkpt lat="48.59556" lon="1.9816">
        <ele>153.2</ele>
        <time>2023-01-31T08:28:23Z</time>
      </trkpt>
      <trkpt lat="48.59561" lon="1.98172">
        <ele>152.8</ele>
        <time>2023-01-31T08:28:29Z</time>
      </trkpt>
      <trkpt lat="48.59566" lon="1.98185">
        <ele>152.3</ele>
        <time>2023-01-31T08:28:36Z</time>
      </trkpt>
      <trkpt lat="48.59573" lon="1.98194">
        <ele>152</ele>
        <time>2023-01-31T08:28:43Z</time>
      </trkpt>
      <trkpt lat="48.59583" lon="1.982">
        <ele>151.8</ele>
        <time>2023-01-31T08:28:49Z</time>
      </trkpt>
      <trkpt lat="48.5959" lon="1.98209">
        <ele>151.2</ele>
        <time>2023-01-31T08:28:55Z</time>
      </trkpt>
      <trkpt lat="48.59596" lon="1.9822">
        <ele>150.6</ele>
        <time>2023-01-31T08:29:01Z</time>
      </trkpt>
      <trkpt lat="48.59604" lon="1.98228">
        <ele>150</ele>
        <time>2023-01-31T08:29:07Z</time>
      </trkpt>
      <trkpt lat="48.59612" lon="1.98237">
        <ele>149.4</ele>
        <time>2023-01-31T08:29:14Z</time>
      </trkpt>
      <trkpt lat="48.59617" lon="1.98249">
        <ele>148.4</ele>
        <time>2023-01-31T08:29:20Z</time>
      </trkpt>
      <trkpt lat="48.59622" lon="1.98261">
        <ele>147.5</ele>
        <time>2023-01-31T08:29:27Z</time>
      </trkpt>
      <trkpt lat="48.59627" lon="1.98272">
        <ele>146.5</ele>
        <time>2023-01-31T08:29:34Z</time>
      </trkpt>
      <trkpt lat="48.59634" lon="1.98283">
        <ele>145.6</ele>
        <time>2023-01-31T08:29:41Z</time>
      </trkpt>
      <trkpt lat="48.59639" lon="1.98295">
        <ele>145.6</ele>
        <time>2023-01-31T08:29:48Z</time>
      </trkpt>
      <trkpt lat="48.59642" lon="1.98307">
        <ele>145.4</ele>
        <time>2023-01-31T08:29:55Z</time>
      </trkpt>
      <trkpt lat="48.59647" lon="1.98319">
        <ele>144.8</ele>
        <time>2023-01-31T08:30:02Z</time>
      </trkpt>
      <trkpt lat="48.59651" lon="1.98333">
        <ele>144.7</ele>
        <time>2023-01-31T08:30:10Z</time>
      </trkpt>
      <trkpt lat="48.59655" lon="1.98344">
        <ele>144.8</ele>
        <time>2023-01-31T08:30:17Z</time>
      </trkpt>
      <trkpt lat="48.59658" lon="1.98359">
        <ele>145.5</ele>
        <time>2023-01-31T08:30:25Z</time>
      </trkpt>
      <trkpt lat="48.59666" lon="1.98368">
        <ele>145.5</ele>
        <time>2023-01-31T08:30:31Z</time>
      </trkpt>
      <trkpt lat="48.59673" lon="1.98379">
        <ele>145.5</ele>
        <time>2023-01-31T08:30:38Z</time>
      </trkpt>
      <trkpt lat="48.59679" lon="1.98391">
        <ele>145.8</ele>
        <time>2023-01-31T08:30:45Z</time>
      </trkpt>
      <trkpt lat="48.59682" lon="1.98405">
        <ele>146</ele>
        <time>2023-01-31T08:30:53Z</time>
      </trkpt>
      <trkpt lat="48.59684" lon="1.98419">
        <ele>146.4</ele>
        <time>2023-01-31T08:31:01Z</time>
      </trkpt>
      <trkpt lat="48.59687" lon="1.98433">
        <ele>146.7</ele>
        <time>2023-01-31T08:31:09Z</time>
      </trkpt>
      <trkpt lat="48.59689" lon="1.98448">
        <ele>147</ele>
        <time>2023-01-31T08:31:18Z</time>
      </trkpt>
      <trkpt lat="48.59688" lon="1.98462">
        <ele>146.9</ele>
        <time>2023-01-31T08:31:27Z</time>
      </trkpt>
      <trkpt lat="48.59687" lon="1.98476">
        <ele>146.7</ele>
        <time>2023-01-31T08:31:35Z</time>
      </trkpt>
      <trkpt lat="48.59688" lon="1.98491">
        <ele>146.6</ele>
        <time>2023-01-31T08:31:42Z</time>
      </trkpt>
      <trkpt lat="48.59689" lon="1.98506">
        <ele>146.4</ele>
        <time>2023-01-31T08:31:49Z</time>
      </trkpt>
      <trkpt lat="48.59686" lon="1.98521">
        <ele>145.6</ele>
        <time>2023-01-31T08:31:56Z</time>
      </trkpt>
      <trkpt lat="48.59687" lon="1.98536">
        <ele>144.9</ele>
        <time>2023-01-31T08:32:03Z</time>
      </trkpt>
      <trkpt lat="48.59688" lon="1.9855">
        <ele>143.9</ele>
        <time>2023-01-31T08:32:10Z</time>
      </trkpt>
      <trkpt lat="48.5969" lon="1.98564">
        <ele>142.8</ele>
        <time>2023-01-31T08:32:16Z</time>
      </trkpt>
      <trkpt lat="48.5969" lon="1.98579">
        <ele>141.1</ele>
        <time>2023-01-31T08:32:24Z</time>
      </trkpt>
      <trkpt lat="48.59695" lon="1.98591">
        <ele>139.9</ele>
        <time>2023-01-31T08:32:31Z</time>
      </trkpt>
      <trkpt lat="48.59696" lon="1.98606">
        <ele>137.8</ele>
        <time>2023-01-31T08:32:38Z</time>
      </trkpt>
      <trkpt lat="48.59694" lon="1.9862">
        <ele>135.6</ele>
        <time>2023-01-31T08:32:45Z</time>
      </trkpt>
      <trkpt lat="48.59691" lon="1.98635">
        <ele>133.2</ele>
        <time>2023-01-31T08:32:53Z</time>
      </trkpt>
      <trkpt lat="48.5969" lon="1.98649">
        <ele>130.8</ele>
        <time>2023-01-31T08:33:00Z</time>
      </trkpt>
      <trkpt lat="48.59688" lon="1.98663">
        <ele>128.3</ele>
        <time>2023-01-31T08:33:08Z</time>
      </trkpt>
      <trkpt lat="48.59684" lon="1.98676">
        <ele>126.6</ele>
        <time>2023-01-31T08:33:18Z</time>
      </trkpt>
      <trkpt lat="48.59678" lon="1.98688">
        <ele>125.1</ele>
        <time>2023-01-31T08:33:27Z</time>
      </trkpt>
      <trkpt lat="48.59672" lon="1.987">
        <ele>123.8</ele>
        <time>2023-01-31T08:33:38Z</time>
      </trkpt>
      <trkpt lat="48.59664" lon="1.98704">
        <ele>123.3</ele>
        <time>2023-01-31T08:33:46Z</time>
      </trkpt>
      <trkpt lat="48.59654" lon="1.987">
        <ele>123.7</ele>
        <time>2023-01-31T08:33:54Z</time>
      </trkpt>
      <trkpt lat="48.59644" lon="1.98696">
        <ele>123.9</ele>
        <time>2023-01-31T08:34:02Z</time>
      </trkpt>
      <trkpt lat="48.59634" lon="1.98693">
        <ele>124.2</ele>
        <time>2023-01-31T08:34:09Z</time>
      </trkpt>
      <trkpt lat="48.59625" lon="1.987">
        <ele>124.2</ele>
        <time>2023-01-31T08:34:17Z</time>
      </trkpt>
      <trkpt lat="48.59618" lon="1.9871">
        <ele>123.8</ele>
        <time>2023-01-31T08:34:24Z</time>
      </trkpt>
      <trkpt lat="48.59611" lon="1.98721">
        <ele>123.1</ele>
        <time>2023-01-31T08:34:31Z</time>
      </trkpt>
      <trkpt lat="48.59604" lon="1.98731">
        <ele>122.9</ele>
        <time>2023-01-31T08:34:39Z</time>
      </trkpt>
      <trkpt lat="48.59597" lon="1.98741">
        <ele>122.8</ele>
        <time>2023-01-31T08:34:47Z</time>
      </trkpt>
      <trkpt lat="48.5959" lon="1.98754">
        <ele>122.8</ele>
        <time>2023-01-31T08:34:54Z</time>
      </trkpt>
      <trkpt lat="48.59582" lon="1.98763">
        <ele>123</ele>
        <time>2023-01-31T08:35:01Z</time>
      </trkpt>
      <trkpt lat="48.59573" lon="1.98769">
        <ele>123</ele>
        <time>2023-01-31T08:35:08Z</time>
      </trkpt>
      <trkpt lat="48.59563" lon="1.98771">
        <ele>123</ele>
        <time>2023-01-31T08:35:15Z</time>
      </trkpt>
      <trkpt lat="48.59555" lon="1.98777">
        <ele>123</ele>
        <time>2023-01-31T08:35:22Z</time>
      </trkpt>
      <trkpt lat="48.59551" lon="1.9879">
        <ele>123.4</ele>
        <time>2023-01-31T08:35:31Z</time>
      </trkpt>
      <trkpt lat="48.59556" lon="1.98802">
        <ele>123.9</ele>
        <time>2023-01-31T08:37:45Z</time>
      </trkpt>
      <trkpt lat="48.59565" lon="1.988">
        <ele>124.1</ele>
        <time>2023-01-31T08:37:54Z</time>
      </trkpt>
      <trkpt lat="48.59575" lon="1.98799">
        <ele>124.3</ele>
        <time>2023-01-31T08:38:04Z</time>
      </trkpt>
      <trkpt lat="48.59584" lon="1.98797">
        <ele>124.3</ele>
        <time>2023-01-31T08:38:11Z</time>
      </trkpt>
      <trkpt lat="48.59594" lon="1.98793">
        <ele>123.9</ele>
        <time>2023-01-31T08:38:18Z</time>
      </trkpt>
      <trkpt lat="48.59604" lon="1.98794">
        <ele>123.7</ele>
        <time>2023-01-31T08:38:24Z</time>
      </trkpt>
      <trkpt lat="48.59613" lon="1.98794">
        <ele>123.5</ele>
        <time>2023-01-31T08:38:30Z</time>
      </trkpt>
      <trkpt lat="48.59623" lon="1.9879">
        <ele>122.6</ele>
        <time>2023-01-31T08:38:40Z</time>
      </trkpt>
      <trkpt lat="48.59633" lon="1.98792">
        <ele>122</ele>
        <time>2023-01-31T08:38:47Z</time>
      </trkpt>
      <trkpt lat="48.59642" lon="1.98793">
        <ele>121.3</ele>
        <time>2023-01-31T08:38:54Z</time>
      </trkpt>
      <trkpt lat="48.59653" lon="1.98791">
        <ele>120.5</ele>
        <time>2023-01-31T08:39:02Z</time>
      </trkpt>
      <trkpt lat="48.59663" lon="1.9879">
        <ele>119.7</ele>
        <time>2023-01-31T08:39:09Z</time>
      </trkpt>
      <trkpt lat="48.59673" lon="1.9879">
        <ele>119.1</ele>
        <time>2023-01-31T08:39:15Z</time>
      </trkpt>
      <trkpt lat="48.59683" lon="1.9879">
        <ele>118.6</ele>
        <time>2023-01-31T08:39:24Z</time>
      </trkpt>
      <trkpt lat="48.59692" lon="1.98791">
        <ele>118.1</ele>
        <time>2023-01-31T08:39:30Z</time>
      </trkpt>
      <trkpt lat="48.59701" lon="1.98791">
        <ele>117.7</ele>
        <time>2023-01-31T08:39:37Z</time>
      </trkpt>
      <trkpt lat="48.5971" lon="1.98791">
        <ele>117.1</ele>
        <time>2023-01-31T08:39:45Z</time>
      </trkpt>
      <trkpt lat="48.5972" lon="1.98793">
        <ele>116.6</ele>
        <time>2023-01-31T08:39:52Z</time>
      </trkpt>
      <trkpt lat="48.5973" lon="1.98792">
        <ele>116.2</ele>
        <time>2023-01-31T08:40:00Z</time>
      </trkpt>
      <trkpt lat="48.5974" lon="1.98791">
        <ele>115.9</ele>
        <time>2023-01-31T08:40:07Z</time>
      </trkpt>
      <trkpt lat="48.5975" lon="1.98792">
        <ele>115.5</ele>
        <time>2023-01-31T08:40:13Z</time>
      </trkpt>
      <trkpt lat="48.5976" lon="1.98793">
        <ele>115.2</ele>
        <time>2023-01-31T08:40:20Z</time>
      </trkpt>
      <trkpt lat="48.59769" lon="1.98793">
        <ele>115.1</ele>
        <time>2023-01-31T08:40:26Z</time>
      </trkpt>
      <trkpt lat="48.59779" lon="1.98792">
        <ele>114.9</ele>
        <time>2023-01-31T08:40:31Z</time>
      </trkpt>
      <trkpt lat="48.59788" lon="1.98792">
        <ele>114.6</ele>
        <time>2023-01-31T08:40:39Z</time>
      </trkpt>
      <trkpt lat="48.59797" lon="1.98793">
        <ele>114.2</ele>
        <time>2023-01-31T08:40:47Z</time>
      </trkpt>
      <trkpt lat="48.59807" lon="1.98794">
        <ele>113.8</ele>
        <time>2023-01-31T08:40:55Z</time>
      </trkpt>
      <trkpt lat="48.59816" lon="1.98796">
        <ele>113.5</ele>
        <time>2023-01-31T08:41:03Z</time>
      </trkpt>
      <trkpt lat="48.59826" lon="1.98794">
        <ele>113.4</ele>
        <time>2023-01-31T08:41:10Z</time>
      </trkpt>
      <trkpt lat="48.59835" lon="1.98793">
        <ele>113.3</ele>
        <time>2023-01-31T08:41:16Z</time>
      </trkpt>
      <trkpt lat="48.59844" lon="1.9879">
        <ele>113.1</ele>
        <time>2023-01-31T08:41:25Z</time>
      </trkpt>
      <trkpt lat="48.59854" lon="1.98788">
        <ele>112.7</ele>
        <time>2023-01-31T08:41:32Z</time>
      </trkpt>
      <trkpt lat="48.59863" lon="1.98785">
        <ele>112.2</ele>
        <time>2023-01-31T08:41:40Z</time>
      </trkpt>
      <trkpt lat="48.59873" lon="1.98784">
        <ele>111.3</ele>
        <time>2023-01-31T08:41:46Z</time>
      </trkpt>
      <trkpt lat="48.59883" lon="1.98781">
        <ele>110.5</ele>
        <time>2023-01-31T08:41:53Z</time>
      </trkpt>
      <trkpt lat="48.59892" lon="1.98779">
        <ele>109.6</ele>
        <time>2023-01-31T08:42:00Z</time>
      </trkpt>
      <trkpt lat="48.59903" lon="1.98775">
        <ele>108.6</ele>
        <time>2023-01-31T08:42:07Z</time>
      </trkpt>
      <trkpt lat="48.59912" lon="1.98772">
        <ele>107.8</ele>
        <time>2023-01-31T08:42:14Z</time>
      </trkpt>
      <trkpt lat="48.59922" lon="1.98769">
        <ele>107.1</ele>
        <time>2023-01-31T08:42:21Z</time>
      </trkpt>
      <trkpt lat="48.59931" lon="1.98769">
        <ele>106.6</ele>
        <time>2023-01-31T08:42:27Z</time>
      </trkpt>
      <trkpt lat="48.59941" lon="1.98765">
        <ele>106.2</ele>
        <time>2023-01-31T08:42:35Z</time>
      </trkpt>
      <trkpt lat="48.5995" lon="1.98762">
        <ele>105.9</ele>
        <time>2023-01-31T08:42:44Z</time>
      </trkpt>
      <trkpt lat="48.59959" lon="1.98758">
        <ele>105.8</ele>
        <time>2023-01-31T08:42:52Z</time>
      </trkpt>
      <trkpt lat="48.59968" lon="1.98757">
        <ele>105.8</ele>
        <time>2023-01-31T08:42:59Z</time>
      </trkpt>
      <trkpt lat="48.59978" lon="1.98756">
        <ele>105.6</ele>
        <time>2023-01-31T08:43:06Z</time>
      </trkpt>
      <trkpt lat="48.59987" lon="1.98752">
        <ele>105.4</ele>
        <time>2023-01-31T08:43:12Z</time>
      </trkpt>
      <trkpt lat="48.59996" lon="1.9875">
        <ele>105.1</ele>
        <time>2023-01-31T08:43:19Z</time>
      </trkpt>
      <trkpt lat="48.60006" lon="1.98749">
        <ele>105.3</ele>
        <time>2023-01-31T08:43:26Z</time>
      </trkpt>
      <trkpt lat="48.60015" lon="1.98747">
        <ele>105.7</ele>
        <time>2023-01-31T08:43:32Z</time>
      </trkpt>
      <trkpt lat="48.60024" lon="1.98746">
        <ele>106</ele>
        <time>2023-01-31T08:43:39Z</time>
      </trkpt>
      <trkpt lat="48.60034" lon="1.98743">
        <ele>106.4</ele>
        <time>2023-01-31T08:43:47Z</time>
      </trkpt>
      <trkpt lat="48.60045" lon="1.98741">
        <ele>106.7</ele>
        <time>2023-01-31T08:43:53Z</time>
      </trkpt>
      <trkpt lat="48.60054" lon="1.98739">
        <ele>107</ele>
        <time>2023-01-31T08:44:00Z</time>
      </trkpt>
      <trkpt lat="48.60064" lon="1.98738">
        <ele>107.1</ele>
        <time>2023-01-31T08:44:08Z</time>
      </trkpt>
      <trkpt lat="48.60072" lon="1.9873">
        <ele>107.4</ele>
        <time>2023-01-31T08:44:15Z</time>
      </trkpt>
      <trkpt lat="48.60081" lon="1.98723">
        <ele>107.9</ele>
        <time>2023-01-31T08:44:22Z</time>
      </trkpt>
      <trkpt lat="48.6009" lon="1.98716">
        <ele>108.2</ele>
        <time>2023-01-31T08:44:29Z</time>
      </trkpt>
      <trkpt lat="48.60099" lon="1.9871">
        <ele>108.4</ele>
        <time>2023-01-31T08:44:37Z</time>
      </trkpt>
      <trkpt lat="48.60107" lon="1.98705">
        <ele>108.6</ele>
        <time>2023-01-31T08:44:44Z</time>
      </trkpt>
      <trkpt lat="48.60116" lon="1.98699">
        <ele>108.7</ele>
        <time>2023-01-31T08:44:51Z</time>
      </trkpt>
      <trkpt lat="48.60125" lon="1.98692">
        <ele>108.6</ele>
        <time>2023-01-31T08:44:58Z</time>
      </trkpt>
      <trkpt lat="48.60132" lon="1.98684">
        <ele>108.6</ele>
        <time>2023-01-31T08:45:05Z</time>
      </trkpt>
      <trkpt lat="48.6014" lon="1.98674">
        <ele>108.7</ele>
        <time>2023-01-31T08:45:13Z</time>
      </trkpt>
      <trkpt lat="48.60145" lon="1.98662">
        <ele>108.8</ele>
        <time>2023-01-31T08:45:22Z</time>
      </trkpt>
      <trkpt lat="48.60142" lon="1.9865">
        <ele>108.9</ele>
        <time>2023-01-31T08:45:33Z</time>
      </trkpt>
      <trkpt lat="48.60137" lon="1.98637">
        <ele>109.1</ele>
        <time>2023-01-31T08:45:42Z</time>
      </trkpt>
      <trkpt lat="48.60131" lon="1.98627">
        <ele>109.3</ele>
        <time>2023-01-31T08:45:50Z</time>
      </trkpt>
      <trkpt lat="48.60122" lon="1.98621">
        <ele>109.6</ele>
        <time>2023-01-31T08:46:00Z</time>
      </trkpt>
      <trkpt lat="48.60123" lon="1.98606">
        <ele>109.7</ele>
        <time>2023-01-31T08:46:08Z</time>
      </trkpt>
      <trkpt lat="48.60117" lon="1.98594">
        <ele>110.3</ele>
        <time>2023-01-31T08:46:18Z</time>
      </trkpt>
      <trkpt lat="48.60109" lon="1.98586">
        <ele>111</ele>
        <time>2023-01-31T08:46:26Z</time>
      </trkpt>
      <trkpt lat="48.60099" lon="1.98586">
        <ele>111.4</ele>
        <time>2023-01-31T08:46:35Z</time>
      </trkpt>
      <trkpt lat="48.6009" lon="1.98582">
        <ele>111.8</ele>
        <time>2023-01-31T08:46:43Z</time>
      </trkpt>
      <trkpt lat="48.6008" lon="1.98577">
        <ele>112</ele>
        <time>2023-01-31T08:46:51Z</time>
      </trkpt>
      <trkpt lat="48.60073" lon="1.98568">
        <ele>112.2</ele>
        <time>2023-01-31T08:46:58Z</time>
      </trkpt>
      <trkpt lat="48.60066" lon="1.98559">
        <ele>112.5</ele>
        <time>2023-01-31T08:47:05Z</time>
      </trkpt>
      <trkpt lat="48.60058" lon="1.98553">
        <ele>113</ele>
        <time>2023-01-31T08:47:12Z</time>
      </trkpt>
      <trkpt lat="48.6005" lon="1.98543">
        <ele>113.3</ele>
        <time>2023-01-31T08:47:21Z</time>
      </trkpt>
      <trkpt lat="48.60042" lon="1.98535">
        <ele>113.6</ele>
        <time>2023-01-31T08:47:30Z</time>
      </trkpt>
      <trkpt lat="48.60036" lon="1.98525">
        <ele>114.2</ele>
        <time>2023-01-31T08:47:38Z</time>
      </trkpt>
      <trkpt lat="48.60031" lon="1.98512">
        <ele>115.1</ele>
        <time>2023-01-31T08:47:46Z</time>
      </trkpt>
      <trkpt lat="48.60027" lon="1.98499">
        <ele>116</ele>
        <time>2023-01-31T08:47:53Z</time>
      </trkpt>
      <trkpt lat="48.60023" lon="1.98487">
        <ele>116.6</ele>
        <time>2023-01-31T08:48:01Z</time>
      </trkpt>
      <trkpt lat="48.60016" lon="1.98478">
        <ele>116.8</ele>
        <time>2023-01-31T08:48:11Z</time>
      </trkpt>
      <trkpt lat="48.60007" lon="1.98476">
        <ele>116.2</ele>
        <time>2023-01-31T08:48:20Z</time>
      </trkpt>
      <trkpt lat="48.59999" lon="1.98466">
        <ele>116.6</ele>
        <time>2023-01-31T08:48:29Z</time>
      </trkpt>
      <trkpt lat="48.59993" lon="1.98455">
        <ele>117.5</ele>
        <time>2023-01-31T08:48:35Z</time>
      </trkpt>
      <trkpt lat="48.59986" lon="1.98445">
        <ele>117.9</ele>
        <time>2023-01-31T08:48:43Z</time>
      </trkpt>
      <trkpt lat="48.59979" lon="1.98435">
        <ele>118.1</ele>
        <time>2023-01-31T08:48:50Z</time>
      </trkpt>
      <trkpt lat="48.59971" lon="1.98426">
        <ele>118.3</ele>
        <time>2023-01-31T08:48:57Z</time>
      </trkpt>
      <trkpt lat="48.59963" lon="1.98417">
        <ele>118.7</ele>
        <time>2023-01-31T08:49:03Z</time>
      </trkpt>
      <trkpt lat="48.59956" lon="1.98408">
        <ele>119.2</ele>
        <time>2023-01-31T08:49:12Z</time>
      </trkpt>
      <trkpt lat="48.59951" lon="1.98396">
        <ele>119.9</ele>
        <time>2023-01-31T08:49:20Z</time>
      </trkpt>
      <trkpt lat="48.59944" lon="1.98385">
        <ele>120.3</ele>
        <time>2023-01-31T08:49:28Z</time>
      </trkpt>
      <trkpt lat="48.59939" lon="1.98372">
        <ele>121.1</ele>
        <time>2023-01-31T08:49:36Z</time>
      </trkpt>
      <trkpt lat="48.59932" lon="1.98362">
        <ele>121.5</ele>
        <time>2023-01-31T08:49:43Z</time>
      </trkpt>
      <trkpt lat="48.59924" lon="1.98353">
        <ele>122.2</ele>
        <time>2023-01-31T08:49:50Z</time>
      </trkpt>
      <trkpt lat="48.59915" lon="1.98345">
        <ele>122.8</ele>
        <time>2023-01-31T08:49:58Z</time>
      </trkpt>
      <trkpt lat="48.59908" lon="1.98337">
        <ele>123.7</ele>
        <time>2023-01-31T08:50:05Z</time>
      </trkpt>
      <trkpt lat="48.59901" lon="1.98327">
        <ele>124.3</ele>
        <time>2023-01-31T08:50:13Z</time>
      </trkpt>
      <trkpt lat="48.59896" lon="1.98315">
        <ele>124.8</ele>
        <time>2023-01-31T08:50:20Z</time>
      </trkpt>
      <trkpt lat="48.59889" lon="1.98303">
        <ele>125.2</ele>
        <time>2023-01-31T08:50:27Z</time>
      </trkpt>
      <trkpt lat="48.59883" lon="1.98294">
        <ele>126</ele>
        <time>2023-01-31T08:50:33Z</time>
      </trkpt>
      <trkpt lat="48.59875" lon="1.98284">
        <ele>126.7</ele>
        <time>2023-01-31T08:50:41Z</time>
      </trkpt>
      <trkpt lat="48.59867" lon="1.98275">
        <ele>127.1</ele>
        <time>2023-01-31T08:50:50Z</time>
      </trkpt>
      <trkpt lat="48.59858" lon="1.9827">
        <ele>127.6</ele>
        <time>2023-01-31T08:50:58Z</time>
      </trkpt>
      <trkpt lat="48.59849" lon="1.98266">
        <ele>128.8</ele>
        <time>2023-01-31T08:51:05Z</time>
      </trkpt>
      <trkpt lat="48.59839" lon="1.98263">
        <ele>129.9</ele>
        <time>2023-01-31T08:51:12Z</time>
      </trkpt>
      <trkpt lat="48.5983" lon="1.98257">
        <ele>131.1</ele>
        <time>2023-01-31T08:51:21Z</time>
      </trkpt>
      <trkpt lat="48.59822" lon="1.98252">
        <ele>132.5</ele>
        <time>2023-01-31T08:51:28Z</time>
      </trkpt>
      <trkpt lat="48.59812" lon="1.98251">
        <ele>134</ele>
        <time>2023-01-31T08:51:36Z</time>
      </trkpt>
      <trkpt lat="48.59803" lon="1.98247">
        <ele>135.4</ele>
        <time>2023-01-31T08:51:44Z</time>
      </trkpt>
      <trkpt lat="48.59794" lon="1.98249">
        <ele>136.3</ele>
        <time>2023-01-31T08:51:53Z</time>
      </trkpt>
      <trkpt lat="48.59785" lon="1.98244">
        <ele>137.6</ele>
        <time>2023-01-31T08:52:01Z</time>
      </trkpt>
      <trkpt lat="48.59777" lon="1.98235">
        <ele>139.2</ele>
        <time>2023-01-31T08:52:12Z</time>
      </trkpt>
      <trkpt lat="48.59769" lon="1.98226">
        <ele>140.3</ele>
        <time>2023-01-31T08:52:20Z</time>
      </trkpt>
      <trkpt lat="48.59761" lon="1.9822">
        <ele>141.3</ele>
        <time>2023-01-31T08:52:29Z</time>
      </trkpt>
      <trkpt lat="48.59752" lon="1.98215">
        <ele>142.1</ele>
        <time>2023-01-31T08:52:38Z</time>
      </trkpt>
      <trkpt lat="48.59743" lon="1.98209">
        <ele>142.8</ele>
        <time>2023-01-31T08:52:50Z</time>
      </trkpt>
      <trkpt lat="48.59735" lon="1.98201">
        <ele>143.7</ele>
        <time>2023-01-31T08:52:59Z</time>
      </trkpt>
      <trkpt lat="48.59734" lon="1.98188">
        <ele>144.5</ele>
        <time>2023-01-31T08:54:30Z</time>
      </trkpt>
      <trkpt lat="48.59741" lon="1.98179">
        <ele>144.4</ele>
        <time>2023-01-31T08:54:39Z</time>
      </trkpt>
      <trkpt lat="48.59749" lon="1.98169">
        <ele>144.1</ele>
        <time>2023-01-31T08:54:47Z</time>
      </trkpt>
      <trkpt lat="48.59756" lon="1.9816">
        <ele>143.8</ele>
        <time>2023-01-31T08:54:54Z</time>
      </trkpt>
      <trkpt lat="48.59763" lon="1.98149">
        <ele>143.4</ele>
        <time>2023-01-31T08:55:02Z</time>
      </trkpt>
      <trkpt lat="48.59771" lon="1.9814">
        <ele>142.7</ele>
        <time>2023-01-31T08:55:10Z</time>
      </trkpt>
      <trkpt lat="48.59778" lon="1.98131">
        <ele>142.3</ele>
        <time>2023-01-31T08:55:17Z</time>
      </trkpt>
      <trkpt lat="48.59786" lon="1.98122">
        <ele>142.2</ele>
        <time>2023-01-31T08:55:24Z</time>
      </trkpt>
      <trkpt lat="48.59793" lon="1.98112">
        <ele>142.4</ele>
        <time>2023-01-31T08:55:31Z</time>
      </trkpt>
      <trkpt lat="48.598" lon="1.98102">
        <ele>142.5</ele>
        <time>2023-01-31T08:55:38Z</time>
      </trkpt>
      <trkpt lat="48.59807" lon="1.98093">
        <ele>142.6</ele>
        <time>2023-01-31T08:55:45Z</time>
      </trkpt>
      <trkpt lat="48.59814" lon="1.98085">
        <ele>142.9</ele>
        <time>2023-01-31T08:55:52Z</time>
      </trkpt>
      <trkpt lat="48.59821" lon="1.98074">
        <ele>143.2</ele>
        <time>2023-01-31T08:56:00Z</time>
      </trkpt>
      <trkpt lat="48.59828" lon="1.98064">
        <ele>143.6</ele>
        <time>2023-01-31T08:56:08Z</time>
      </trkpt>
      <trkpt lat="48.59835" lon="1.98055">
        <ele>144</ele>
        <time>2023-01-31T08:56:15Z</time>
      </trkpt>
      <trkpt lat="48.59842" lon="1.98045">
        <ele>144.1</ele>
        <time>2023-01-31T08:56:22Z</time>
      </trkpt>
      <trkpt lat="48.59848" lon="1.98034">
        <ele>144.4</ele>
        <time>2023-01-31T08:56:30Z</time>
      </trkpt>
      <trkpt lat="48.59854" lon="1.98023">
        <ele>144.6</ele>
        <time>2023-01-31T08:56:37Z</time>
      </trkpt>
      <trkpt lat="48.59858" lon="1.98009">
        <ele>144.2</ele>
        <time>2023-01-31T08:56:45Z</time>
      </trkpt>
      <trkpt lat="48.59862" lon="1.97997">
        <ele>143.8</ele>
        <time>2023-01-31T08:56:52Z</time>
      </trkpt>
      <trkpt lat="48.59867" lon="1.97984">
        <ele>142.8</ele>
        <time>2023-01-31T08:57:00Z</time>
      </trkpt>
      <trkpt lat="48.59871" lon="1.97972">
        <ele>141.6</ele>
        <time>2023-01-31T08:57:08Z</time>
      </trkpt>
      <trkpt lat="48.59875" lon="1.97959">
        <ele>139.8</ele>
        <time>2023-01-31T08:57:17Z</time>
      </trkpt>
      <trkpt lat="48.59879" lon="1.97946">
        <ele>138.2</ele>
        <time>2023-01-31T08:57:24Z</time>
      </trkpt>
      <trkpt lat="48.59885" lon="1.97935">
        <ele>136.7</ele>
        <time>2023-01-31T08:57:32Z</time>
      </trkpt>
      <trkpt lat="48.59892" lon="1.97923">
        <ele>134.7</ele>
        <time>2023-01-31T08:57:40Z</time>
      </trkpt>
      <trkpt lat="48.59897" lon="1.9791">
        <ele>132.9</ele>
        <time>2023-01-31T08:57:49Z</time>
      </trkpt>
      <trkpt lat="48.59902" lon="1.97898">
        <ele>131.2</ele>
        <time>2023-01-31T08:57:57Z</time>
      </trkpt>
      <trkpt lat="48.59903" lon="1.97883">
        <ele>129.6</ele>
        <time>2023-01-31T08:58:06Z</time>
      </trkpt>
      <trkpt lat="48.59907" lon="1.9787">
        <ele>128.3</ele>
        <time>2023-01-31T08:58:14Z</time>
      </trkpt>
      <trkpt lat="48.59912" lon="1.97859">
        <ele>127.2</ele>
        <time>2023-01-31T08:58:21Z</time>
      </trkpt>
      <trkpt lat="48.59918" lon="1.97847">
        <ele>126.4</ele>
        <time>2023-01-31T08:58:29Z</time>
      </trkpt>
      <trkpt lat="48.59923" lon="1.97836">
        <ele>125.6</ele>
        <time>2023-01-31T08:58:35Z</time>
      </trkpt>
      <trkpt lat="48.59928" lon="1.97825">
        <ele>124.7</ele>
        <time>2023-01-31T08:58:41Z</time>
      </trkpt>
      <trkpt lat="48.59933" lon="1.97812">
        <ele>123.7</ele>
        <time>2023-01-31T08:58:47Z</time>
      </trkpt>
      <trkpt lat="48.59939" lon="1.978">
        <ele>123</ele>
        <time>2023-01-31T08:58:54Z</time>
      </trkpt>
      <trkpt lat="48.59944" lon="1.97786">
        <ele>122.3</ele>
        <time>2023-01-31T08:59:01Z</time>
      </trkpt>
      <trkpt lat="48.5995" lon="1.97774">
        <ele>121.4</ele>
        <time>2023-01-31T08:59:08Z</time>
      </trkpt>
      <trkpt lat="48.59956" lon="1.97763">
        <ele>120.4</ele>
        <time>2023-01-31T08:59:16Z</time>
      </trkpt>
      <trkpt lat="48.59961" lon="1.97751">
        <ele>119.3</ele>
        <time>2023-01-31T08:59:24Z</time>
      </trkpt>
      <trkpt lat="48.5997" lon="1.97756">
        <ele>118.6</ele>
        <time>2023-01-31T08:59:33Z</time>
      </trkpt>
      <trkpt lat="48.59977" lon="1.97766">
        <ele>118.5</ele>
        <time>2023-01-31T08:59:40Z</time>
      </trkpt>
      <trkpt lat="48.59986" lon="1.97774">
        <ele>117.9</ele>
        <time>2023-01-31T08:59:47Z</time>
      </trkpt>
      <trkpt lat="48.59994" lon="1.97783">
        <ele>117</ele>
        <time>2023-01-31T08:59:55Z</time>
      </trkpt>
      <trkpt lat="48.60002" lon="1.9779">
        <ele>116.4</ele>
        <time>2023-01-31T09:00:01Z</time>
      </trkpt>
      <trkpt lat="48.60011" lon="1.97796">
        <ele>116</ele>
        <time>2023-01-31T09:00:08Z</time>
      </trkpt>
      <trkpt lat="48.60019" lon="1.97801">
        <ele>115.6</ele>
        <time>2023-01-31T09:00:13Z</time>
      </trkpt>
      <trkpt lat="48.60028" lon="1.97809">
        <ele>115.1</ele>
        <time>2023-01-31T09:00:20Z</time>
      </trkpt>
      <trkpt lat="48.60037" lon="1.97815">
        <ele>115.1</ele>
        <time>2023-01-31T09:00:27Z</time>
      </trkpt>
      <trkpt lat="48.60045" lon="1.97824">
        <ele>114.8</ele>
        <time>2023-01-31T09:00:33Z</time>
      </trkpt>
      <trkpt lat="48.60053" lon="1.97832">
        <ele>114.2</ele>
        <time>2023-01-31T09:00:39Z</time>
      </trkpt>
      <trkpt lat="48.6006" lon="1.97842">
        <ele>114.2</ele>
        <time>2023-01-31T09:00:47Z</time>
      </trkpt>
      <trkpt lat="48.60068" lon="1.97852">
        <ele>114.1</ele>
        <time>2023-01-31T09:00:54Z</time>
      </trkpt>
      <trkpt lat="48.60076" lon="1.9786">
        <ele>113.6</ele>
        <time>2023-01-31T09:01:03Z</time>
      </trkpt>
      <trkpt lat="48.60083" lon="1.97869">
        <ele>113</ele>
        <time>2023-01-31T09:01:09Z</time>
      </trkpt>
      <trkpt lat="48.60091" lon="1.97877">
        <ele>112.7</ele>
        <time>2023-01-31T09:01:15Z</time>
      </trkpt>
      <trkpt lat="48.601" lon="1.97884">
        <ele>112.4</ele>
        <time>2023-01-31T09:01:21Z</time>
      </trkpt>
      <trkpt lat="48.60107" lon="1.97892">
        <ele>112.2</ele>
        <time>2023-01-31T09:01:28Z</time>
      </trkpt>
      <trkpt lat="48.60114" lon="1.97903">
        <ele>112</ele>
        <time>2023-01-31T09:01:37Z</time>
      </trkpt>
      <trkpt lat="48.60121" lon="1.97913">
        <ele>111.7</ele>
        <time>2023-01-31T09:01:45Z</time>
      </trkpt>
      <trkpt lat="48.60128" lon="1.97923">
        <ele>111.6</ele>
        <time>2023-01-31T09:01:52Z</time>
      </trkpt>
      <trkpt lat="48.60136" lon="1.9793">
        <ele>111.2</ele>
        <time>2023-01-31T09:01:59Z</time>
      </trkpt>
      <trkpt lat="48.60144" lon="1.97939">
        <ele>111.1</ele>
        <time>2023-01-31T09:02:05Z</time>
      </trkpt>
      <trkpt lat="48.60152" lon="1.97946">
        <ele>111</ele>
        <time>2023-01-31T09:02:12Z</time>
      </trkpt>
      <trkpt lat="48.60161" lon="1.97952">
        <ele>110.8</ele>
        <time>2023-01-31T09:02:18Z</time>
      </trkpt>
      <trkpt lat="48.6017" lon="1.97961">
        <ele>110.5</ele>
        <time>2023-01-31T09:02:25Z</time>
      </trkpt>
      <trkpt lat="48.60178" lon="1.9797">
        <ele>110.5</ele>
        <time>2023-01-31T09:02:32Z</time>
      </trkpt>
      <trkpt lat="48.60186" lon="1.97977">
        <ele>110.6</ele>
        <time>2023-01-31T09:02:39Z</time>
      </trkpt>
      <trkpt lat="48.60194" lon="1.97984">
        <ele>110.6</ele>
        <time>2023-01-31T09:02:46Z</time>
      </trkpt>
      <trkpt lat="48.60202" lon="1.97992">
        <ele>110.3</ele>
        <time>2023-01-31T09:02:52Z</time>
      </trkpt>
      <trkpt lat="48.6021" lon="1.97999">
        <ele>110</ele>
        <time>2023-01-31T09:02:59Z</time>
      </trkpt>
      <trkpt lat="48.60217" lon="1.98009">
        <ele>109.7</ele>
        <time>2023-01-31T09:03:05Z</time>
      </trkpt>
      <trkpt lat="48.60225" lon="1.98019">
        <ele>109.3</ele>
        <time>2023-01-31T09:03:12Z</time>
      </trkpt>
      <trkpt lat="48.60232" lon="1.98028">
        <ele>109</ele>
        <time>2023-01-31T09:03:19Z</time>
      </trkpt>
      <trkpt lat="48.6024" lon="1.98037">
        <ele>108.8</ele>
        <time>2023-01-31T09:03:26Z</time>
      </trkpt>
      <trkpt lat="48.60247" lon="1.98048">
        <ele>108.4</ele>
        <time>2023-01-31T09:03:34Z</time>
      </trkpt>
      <trkpt lat="48.60255" lon="1.98057">
        <ele>108</ele>
        <time>2023-01-31T09:03:41Z</time>
      </trkpt>
      <trkpt lat="48.60263" lon="1.98064">
        <ele>107.9</ele>
        <time>2023-01-31T09:03:47Z</time>
      </trkpt>
      <trkpt lat="48.60271" lon="1.98073">
        <ele>107.5</ele>
        <time>2023-01-31T09:03:56Z</time>
      </trkpt>
      <trkpt lat="48.60279" lon="1.98081">
        <ele>107.1</ele>
        <time>2023-01-31T09:04:02Z</time>
      </trkpt>
      <trkpt lat="48.60287" lon="1.98088">
        <ele>107.3</ele>
        <time>2023-01-31T09:04:08Z</time>
      </trkpt>
      <trkpt lat="48.60295" lon="1.98097">
        <ele>107.7</ele>
        <time>2023-01-31T09:04:16Z</time>
      </trkpt>
      <trkpt lat="48.603" lon="1.9811">
        <ele>108.1</ele>
        <time>2023-01-31T09:04:26Z</time>
      </trkpt>
      <trkpt lat="48.60308" lon="1.98118">
        <ele>108.3</ele>
        <time>2023-01-31T09:04:34Z</time>
      </trkpt>
      <trkpt lat="48.60316" lon="1.98127">
        <ele>108.2</ele>
        <time>2023-01-31T09:04:40Z</time>
      </trkpt>
      <trkpt lat="48.60325" lon="1.98133">
        <ele>107.7</ele>
        <time>2023-01-31T09:04:46Z</time>
      </trkpt>
      <trkpt lat="48.60333" lon="1.9814">
        <ele>107.1</ele>
        <time>2023-01-31T09:04:52Z</time>
      </trkpt>
      <trkpt lat="48.60341" lon="1.98147">
        <ele>106.6</ele>
        <time>2023-01-31T09:04:58Z</time>
      </trkpt>
      <trkpt lat="48.6035" lon="1.98153">
        <ele>105.7</ele>
        <time>2023-01-31T09:05:04Z</time>
      </trkpt>
      <trkpt lat="48.60357" lon="1.98162">
        <ele>104.8</ele>
        <time>2023-01-31T09:05:10Z</time>
      </trkpt>
      <trkpt lat="48.60363" lon="1.98173">
        <ele>103.9</ele>
        <time>2023-01-31T09:05:17Z</time>
      </trkpt>
      <trkpt lat="48.60372" lon="1.9818">
        <ele>103.4</ele>
        <time>2023-01-31T09:05:25Z</time>
      </trkpt>
      <trkpt lat="48.6038" lon="1.98189">
        <ele>102.7</ele>
        <time>2023-01-31T09:05:32Z</time>
      </trkpt>
      <trkpt lat="48.60389" lon="1.98197">
        <ele>102</ele>
        <time>2023-01-31T09:05:38Z</time>
      </trkpt>
      <trkpt lat="48.60396" lon="1.98206">
        <ele>102.2</ele>
        <time>2023-01-31T09:05:46Z</time>
      </trkpt>
      <trkpt lat="48.60404" lon="1.98212">
        <ele>102.2</ele>
        <time>2023-01-31T09:05:52Z</time>
      </trkpt>
      <trkpt lat="48.60411" lon="1.98221">
        <ele>102</ele>
        <time>2023-01-31T09:05:58Z</time>
      </trkpt>
      <trkpt lat="48.6042" lon="1.9823">
        <ele>102</ele>
        <time>2023-01-31T09:06:06Z</time>
      </trkpt>
      <trkpt lat="48.60427" lon="1.98239">
        <ele>102</ele>
        <time>2023-01-31T09:06:13Z</time>
      </trkpt>
      <trkpt lat="48.60435" lon="1.98246">
        <ele>102</ele>
        <time>2023-01-31T09:06:19Z</time>
      </trkpt>
      <trkpt lat="48.60444" lon="1.98254">
        <ele>101.9</ele>
        <time>2023-01-31T09:06:27Z</time>
      </trkpt>
      <trkpt lat="48.60452" lon="1.98262">
        <ele>101.7</ele>
        <time>2023-01-31T09:06:34Z</time>
      </trkpt>
      <trkpt lat="48.60461" lon="1.98268">
        <ele>101.7</ele>
        <time>2023-01-31T09:06:41Z</time>
      </trkpt>
      <trkpt lat="48.60469" lon="1.98278">
        <ele>101.9</ele>
        <time>2023-01-31T09:06:49Z</time>
      </trkpt>
      <trkpt lat="48.60477" lon="1.98285">
        <ele>101.8</ele>
        <time>2023-01-31T09:06:55Z</time>
      </trkpt>
      <trkpt lat="48.60484" lon="1.98296">
        <ele>101.6</ele>
        <time>2023-01-31T09:07:04Z</time>
      </trkpt>
      <trkpt lat="48.6049" lon="1.98308">
        <ele>101.6</ele>
        <time>2023-01-31T09:07:13Z</time>
      </trkpt>
      <trkpt lat="48.60498" lon="1.98316">
        <ele>101.6</ele>
        <time>2023-01-31T09:07:19Z</time>
      </trkpt>
      <trkpt lat="48.60506" lon="1.98325">
        <ele>101.5</ele>
        <time>2023-01-31T09:07:25Z</time>
      </trkpt>
      <trkpt lat="48.60515" lon="1.98332">
        <ele>101.6</ele>
        <time>2023-01-31T09:07:32Z</time>
      </trkpt>
      <trkpt lat="48.60523" lon="1.9834">
        <ele>101.8</ele>
        <time>2023-01-31T09:07:38Z</time>
      </trkpt>
      <trkpt lat="48.60532" lon="1.98345">
        <ele>102.1</ele>
        <time>2023-01-31T09:07:48Z</time>
      </trkpt>
      <trkpt lat="48.60541" lon="1.98351">
        <ele>102.2</ele>
        <time>2023-01-31T09:07:57Z</time>
      </trkpt>
      <trkpt lat="48.6055" lon="1.98354">
        <ele>102.2</ele>
        <time>2023-01-31T09:08:05Z</time>
      </trkpt>
      <trkpt lat="48.60559" lon="1.98349">
        <ele>102.5</ele>
        <time>2023-01-31T09:08:14Z</time>
      </trkpt>
      <trkpt lat="48.60568" lon="1.98342">
        <ele>102.8</ele>
        <time>2023-01-31T09:08:23Z</time>
      </trkpt>
      <trkpt lat="48.60577" lon="1.98338">
        <ele>103</ele>
        <time>2023-01-31T09:08:32Z</time>
      </trkpt>
      <trkpt lat="48.60587" lon="1.98336">
        <ele>102.9</ele>
        <time>2023-01-31T09:08:38Z</time>
      </trkpt>
      <trkpt lat="48.60597" lon="1.98332">
        <ele>102.5</ele>
        <time>2023-01-31T09:08:44Z</time>
      </trkpt>
      <trkpt lat="48.60606" lon="1.98327">
        <ele>102.4</ele>
        <time>2023-01-31T09:08:50Z</time>
      </trkpt>
      <trkpt lat="48.60616" lon="1.98326">
        <ele>102.2</ele>
        <time>2023-01-31T09:08:57Z</time>
      </trkpt>
      <trkpt lat="48.60625" lon="1.98324">
        <ele>102.2</ele>
        <time>2023-01-31T09:09:05Z</time>
      </trkpt>
      <trkpt lat="48.60635" lon="1.98321">
        <ele>102.1</ele>
        <time>2023-01-31T09:09:12Z</time>
      </trkpt>
      <trkpt lat="48.60644" lon="1.98318">
        <ele>101.9</ele>
        <time>2023-01-31T09:09:19Z</time>
      </trkpt>
      <trkpt lat="48.60653" lon="1.98312">
        <ele>101.9</ele>
        <time>2023-01-31T09:09:27Z</time>
      </trkpt>
      <trkpt lat="48.60661" lon="1.98304">
        <ele>102</ele>
        <time>2023-01-31T09:09:35Z</time>
      </trkpt>
      <trkpt lat="48.60671" lon="1.98303">
        <ele>102.1</ele>
        <time>2023-01-31T09:09:41Z</time>
      </trkpt>
      <trkpt lat="48.6068" lon="1.98301">
        <ele>102.2</ele>
        <time>2023-01-31T09:09:48Z</time>
      </trkpt>
      <trkpt lat="48.60689" lon="1.98296">
        <ele>102.3</ele>
        <time>2023-01-31T09:09:56Z</time>
      </trkpt>
      <trkpt lat="48.60698" lon="1.98294">
        <ele>102.3</ele>
        <time>2023-01-31T09:10:03Z</time>
      </trkpt>
      <trkpt lat="48.60708" lon="1.98291">
        <ele>102</ele>
        <time>2023-01-31T09:10:11Z</time>
      </trkpt>
      <trkpt lat="48.60717" lon="1.98286">
        <ele>101.9</ele>
        <time>2023-01-31T09:10:18Z</time>
      </trkpt>
      <trkpt lat="48.60726" lon="1.98282">
        <ele>101.7</ele>
        <time>2023-01-31T09:10:24Z</time>
      </trkpt>
      <trkpt lat="48.60733" lon="1.98273">
        <ele>101.8</ele>
        <time>2023-01-31T09:10:31Z</time>
      </trkpt>
      <trkpt lat="48.60741" lon="1.98265">
        <ele>101.8</ele>
        <time>2023-01-31T09:10:38Z</time>
      </trkpt>
      <trkpt lat="48.60746" lon="1.98252">
        <ele>102.1</ele>
        <time>2023-01-31T09:10:50Z</time>
      </trkpt>
      <trkpt lat="48.60749" lon="1.98237">
        <ele>102</ele>
        <time>2023-01-31T09:10:59Z</time>
      </trkpt>
      <trkpt lat="48.60753" lon="1.98224">
        <ele>101.9</ele>
        <time>2023-01-31T09:11:06Z</time>
      </trkpt>
      <trkpt lat="48.60756" lon="1.9821">
        <ele>102.2</ele>
        <time>2023-01-31T09:11:15Z</time>
      </trkpt>
      <trkpt lat="48.60758" lon="1.98195">
        <ele>102.4</ele>
        <time>2023-01-31T09:11:25Z</time>
      </trkpt>
      <trkpt lat="48.60761" lon="1.98181">
        <ele>102.4</ele>
        <time>2023-01-31T09:11:33Z</time>
      </trkpt>
      <trkpt lat="48.60764" lon="1.98168">
        <ele>102.5</ele>
        <time>2023-01-31T09:11:41Z</time>
      </trkpt>
      <trkpt lat="48.60765" lon="1.98152">
        <ele>102.7</ele>
        <time>2023-01-31T09:11:50Z</time>
      </trkpt>
      <trkpt lat="48.60769" lon="1.9814">
        <ele>102.7</ele>
        <time>2023-01-31T09:11:57Z</time>
      </trkpt>
      <trkpt lat="48.60772" lon="1.98126">
        <ele>102.8</ele>
        <time>2023-01-31T09:12:03Z</time>
      </trkpt>
      <trkpt lat="48.60775" lon="1.98113">
        <ele>103</ele>
        <time>2023-01-31T09:12:09Z</time>
      </trkpt>
      <trkpt lat="48.60778" lon="1.98098">
        <ele>103</ele>
        <time>2023-01-31T09:12:16Z</time>
      </trkpt>
      <trkpt lat="48.6078" lon="1.98083">
        <ele>102.9</ele>
        <time>2023-01-31T09:12:23Z</time>
      </trkpt>
      <trkpt lat="48.60784" lon="1.9807">
        <ele>103.3</ele>
        <time>2023-01-31T09:12:29Z</time>
      </trkpt>
      <trkpt lat="48.60788" lon="1.98057">
        <ele>103.6</ele>
        <time>2023-01-31T09:12:36Z</time>
      </trkpt>
      <trkpt lat="48.60788" lon="1.98041">
        <ele>103.6</ele>
        <time>2023-01-31T09:12:44Z</time>
      </trkpt>
      <trkpt lat="48.60792" lon="1.98026">
        <ele>103.5</ele>
        <time>2023-01-31T09:12:52Z</time>
      </trkpt>
      <trkpt lat="48.60797" lon="1.98013">
        <ele>103.3</ele>
        <time>2023-01-31T09:12:59Z</time>
      </trkpt>
      <trkpt lat="48.60802" lon="1.98">
        <ele>103.1</ele>
        <time>2023-01-31T09:13:08Z</time>
      </trkpt>
      <trkpt lat="48.60802" lon="1.97986">
        <ele>103.1</ele>
        <time>2023-01-31T09:15:09Z</time>
      </trkpt>
      <trkpt lat="48.60803" lon="1.97973">
        <ele>103.1</ele>
        <time>2023-01-31T09:16:11Z</time>
      </trkpt>
      <trkpt lat="48.60797" lon="1.97961">
        <ele>103.3</ele>
        <time>2023-01-31T09:16:21Z</time>
      </trkpt>
      <trkpt lat="48.60788" lon="1.9796">
        <ele>103.6</ele>
        <time>2023-01-31T09:16:30Z</time>
      </trkpt>
      <trkpt lat="48.6078" lon="1.97954">
        <ele>103.9</ele>
        <time>2023-01-31T09:16:38Z</time>
      </trkpt>
      <trkpt lat="48.60772" lon="1.97947">
        <ele>104.2</ele>
        <time>2023-01-31T09:16:46Z</time>
      </trkpt>
      <trkpt lat="48.60763" lon="1.9794">
        <ele>104.4</ele>
        <time>2023-01-31T09:16:56Z</time>
      </trkpt>
      <trkpt lat="48.60755" lon="1.97935">
        <ele>104.5</ele>
        <time>2023-01-31T09:17:04Z</time>
      </trkpt>
      <trkpt lat="48.60747" lon="1.97927">
        <ele>104.5</ele>
        <time>2023-01-31T09:17:13Z</time>
      </trkpt>
      <trkpt lat="48.60738" lon="1.97918">
        <ele>104.5</ele>
        <time>2023-01-31T09:17:22Z</time>
      </trkpt>
      <trkpt lat="48.60731" lon="1.97909">
        <ele>104.7</ele>
        <time>2023-01-31T09:17:30Z</time>
      </trkpt>
      <trkpt lat="48.60722" lon="1.97904">
        <ele>105</ele>
        <time>2023-01-31T09:17:39Z</time>
      </trkpt>
      <trkpt lat="48.60714" lon="1.97896">
        <ele>105.1</ele>
        <time>2023-01-31T09:17:49Z</time>
      </trkpt>
      <trkpt lat="48.60707" lon="1.97888">
        <ele>105</ele>
        <time>2023-01-31T09:17:56Z</time>
      </trkpt>
      <trkpt lat="48.607" lon="1.97877">
        <ele>104.9</ele>
        <time>2023-01-31T09:18:03Z</time>
      </trkpt>
      <trkpt lat="48.60691" lon="1.97867">
        <ele>105.1</ele>
        <time>2023-01-31T09:18:11Z</time>
      </trkpt>
      <trkpt lat="48.60684" lon="1.97859">
        <ele>105.4</ele>
        <time>2023-01-31T09:18:17Z</time>
      </trkpt>
      <trkpt lat="48.60676" lon="1.97849">
        <ele>105.4</ele>
        <time>2023-01-31T09:18:24Z</time>
      </trkpt>
      <trkpt lat="48.60668" lon="1.97841">
        <ele>105.3</ele>
        <time>2023-01-31T09:18:30Z</time>
      </trkpt>
      <trkpt lat="48.6066" lon="1.97833">
        <ele>105.2</ele>
        <time>2023-01-31T09:18:37Z</time>
      </trkpt>
      <trkpt lat="48.60652" lon="1.97827">
        <ele>105.5</ele>
        <time>2023-01-31T09:18:44Z</time>
      </trkpt>
      <trkpt lat="48.60643" lon="1.97818">
        <ele>105.8</ele>
        <time>2023-01-31T09:18:52Z</time>
      </trkpt>
      <trkpt lat="48.60635" lon="1.97811">
        <ele>106</ele>
        <time>2023-01-31T09:19:00Z</time>
      </trkpt>
      <trkpt lat="48.60627" lon="1.97803">
        <ele>105.9</ele>
        <time>2023-01-31T09:19:08Z</time>
      </trkpt>
      <trkpt lat="48.60619" lon="1.97795">
        <ele>105.9</ele>
        <time>2023-01-31T09:19:16Z</time>
      </trkpt>
      <trkpt lat="48.6061" lon="1.97786">
        <ele>106.1</ele>
        <time>2023-01-31T09:19:24Z</time>
      </trkpt>
      <trkpt lat="48.60602" lon="1.97778">
        <ele>106.7</ele>
        <time>2023-01-31T09:19:31Z</time>
      </trkpt>
      <trkpt lat="48.60593" lon="1.97771">
        <ele>107.1</ele>
        <time>2023-01-31T09:19:39Z</time>
      </trkpt>
      <trkpt lat="48.60586" lon="1.97763">
        <ele>107.3</ele>
        <time>2023-01-31T09:19:46Z</time>
      </trkpt>
      <trkpt lat="48.60578" lon="1.97756">
        <ele>107.6</ele>
        <time>2023-01-31T09:19:53Z</time>
      </trkpt>
      <trkpt lat="48.6057" lon="1.97747">
        <ele>108</ele>
        <time>2023-01-31T09:20:01Z</time>
      </trkpt>
      <trkpt lat="48.60562" lon="1.9774">
        <ele>108.5</ele>
        <time>2023-01-31T09:20:08Z</time>
      </trkpt>
      <trkpt lat="48.60554" lon="1.97733">
        <ele>109.1</ele>
        <time>2023-01-31T09:20:16Z</time>
      </trkpt>
      <trkpt lat="48.60546" lon="1.97724">
        <ele>109.7</ele>
        <time>2023-01-31T09:20:24Z</time>
      </trkpt>
      <trkpt lat="48.60538" lon="1.97716">
        <ele>110.3</ele>
        <time>2023-01-31T09:20:32Z</time>
      </trkpt>
      <trkpt lat="48.60531" lon="1.97707">
        <ele>110.8</ele>
        <time>2023-01-31T09:20:40Z</time>
      </trkpt>
      <trkpt lat="48.60522" lon="1.97701">
        <ele>111.2</ele>
        <time>2023-01-31T09:20:48Z</time>
      </trkpt>
      <trkpt lat="48.60514" lon="1.97692">
        <ele>111.5</ele>
        <time>2023-01-31T09:20:56Z</time>
      </trkpt>
      <trkpt lat="48.60506" lon="1.97683">
        <ele>111.7</ele>
        <time>2023-01-31T09:21:05Z</time>
      </trkpt>
      <trkpt lat="48.60497" lon="1.97676">
        <ele>112.1</ele>
        <time>2023-01-31T09:21:13Z</time>
      </trkpt>
      <trkpt lat="48.6049" lon="1.97667">
        <ele>112.3</ele>
        <time>2023-01-31T09:21:20Z</time>
      </trkpt>
      <trkpt lat="48.60483" lon="1.97658">
        <ele>112.6</ele>
        <time>2023-01-31T09:21:27Z</time>
      </trkpt>
      <trkpt lat="48.60474" lon="1.97652">
        <ele>112.9</ele>
        <time>2023-01-31T09:21:35Z</time>
      </trkpt>
      <trkpt lat="48.60467" lon="1.97644">
        <ele>113.4</ele>
        <time>2023-01-31T09:21:43Z</time>
      </trkpt>
      <trkpt lat="48.60459" lon="1.97636">
        <ele>114</ele>
        <time>2023-01-31T09:21:50Z</time>
      </trkpt>
      <trkpt lat="48.60451" lon="1.97628">
        <ele>114.5</ele>
        <time>2023-01-31T09:21:57Z</time>
      </trkpt>
      <trkpt lat="48.60443" lon="1.9762">
        <ele>115.1</ele>
        <time>2023-01-31T09:22:04Z</time>
      </trkpt>
      <trkpt lat="48.60434" lon="1.97612">
        <ele>115.4</ele>
        <time>2023-01-31T09:22:11Z</time>
      </trkpt>
      <trkpt lat="48.60426" lon="1.97604">
        <ele>115.6</ele>
        <time>2023-01-31T09:22:19Z</time>
      </trkpt>
      <trkpt lat="48.60418" lon="1.97597">
        <ele>115.9</ele>
        <time>2023-01-31T09:22:26Z</time>
      </trkpt>
      <trkpt lat="48.60411" lon="1.97588">
        <ele>116.5</ele>
        <time>2023-01-31T09:22:33Z</time>
      </trkpt>
      <trkpt lat="48.60403" lon="1.97578">
        <ele>116.9</ele>
        <time>2023-01-31T09:22:40Z</time>
      </trkpt>
      <trkpt lat="48.60395" lon="1.97569">
        <ele>117.4</ele>
        <time>2023-01-31T09:22:47Z</time>
      </trkpt>
      <trkpt lat="48.60387" lon="1.97562">
        <ele>118.2</ele>
        <time>2023-01-31T09:22:54Z</time>
      </trkpt>
      <trkpt lat="48.60379" lon="1.97554">
        <ele>119</ele>
        <time>2023-01-31T09:23:01Z</time>
      </trkpt>
      <trkpt lat="48.60372" lon="1.97545">
        <ele>119.5</ele>
        <time>2023-01-31T09:23:08Z</time>
      </trkpt>
      <trkpt lat="48.60364" lon="1.97538">
        <ele>120.1</ele>
        <time>2023-01-31T09:23:16Z</time>
      </trkpt>
      <trkpt lat="48.60356" lon="1.9753">
        <ele>120.5</ele>
        <time>2023-01-31T09:23:23Z</time>
      </trkpt>
      <trkpt lat="48.60347" lon="1.97522">
        <ele>120.8</ele>
        <time>2023-01-31T09:23:30Z</time>
      </trkpt>
      <trkpt lat="48.60339" lon="1.97527">
        <ele>121.6</ele>
        <time>2023-01-31T09:23:39Z</time>
      </trkpt>
      <trkpt lat="48.60334" lon="1.97539">
        <ele>122.7</ele>
        <time>2023-01-31T09:23:48Z</time>
      </trkpt>
      <trkpt lat="48.60328" lon="1.97551">
        <ele>124</ele>
        <time>2023-01-31T09:23:57Z</time>
      </trkpt>
      <trkpt lat="48.60325" lon="1.97564">
        <ele>124.9</ele>
        <time>2023-01-31T09:24:06Z</time>
      </trkpt>
      <trkpt lat="48.6032" lon="1.97576">
        <ele>125.7</ele>
        <time>2023-01-31T09:24:14Z</time>
      </trkpt>
      <trkpt lat="48.60315" lon="1.97586">
        <ele>126.4</ele>
        <time>2023-01-31T09:24:23Z</time>
      </trkpt>
      <trkpt lat="48.60308" lon="1.97597">
        <ele>126.8</ele>
        <time>2023-01-31T09:24:32Z</time>
      </trkpt>
      <trkpt lat="48.60305" lon="1.97611">
        <ele>127</ele>
        <time>2023-01-31T09:24:42Z</time>
      </trkpt>
      <trkpt lat="48.603" lon="1.97623">
        <ele>126.7</ele>
        <time>2023-01-31T09:24:49Z</time>
      </trkpt>
      <trkpt lat="48.60295" lon="1.97636">
        <ele>126.4</ele>
        <time>2023-01-31T09:24:57Z</time>
      </trkpt>
      <trkpt lat="48.6029" lon="1.97648">
        <ele>126.2</ele>
        <time>2023-01-31T09:25:05Z</time>
      </trkpt>
      <trkpt lat="48.60285" lon="1.9766">
        <ele>126</ele>
        <time>2023-01-31T09:25:13Z</time>
      </trkpt>
      <trkpt lat="48.60279" lon="1.97672">
        <ele>125.8</ele>
        <time>2023-01-31T09:25:21Z</time>
      </trkpt>
      <trkpt lat="48.60273" lon="1.97684">
        <ele>125.4</ele>
        <time>2023-01-31T09:25:29Z</time>
      </trkpt>
      <trkpt lat="48.60268" lon="1.97697">
        <ele>124.9</ele>
        <time>2023-01-31T09:25:35Z</time>
      </trkpt>
      <trkpt lat="48.60262" lon="1.97707">
        <ele>124.5</ele>
        <time>2023-01-31T09:25:43Z</time>
      </trkpt>
      <trkpt lat="48.60256" lon="1.9772">
        <ele>124.1</ele>
        <time>2023-01-31T09:25:51Z</time>
      </trkpt>
      <trkpt lat="48.60251" lon="1.97733">
        <ele>123.2</ele>
        <time>2023-01-31T09:25:57Z</time>
      </trkpt>
      <trkpt lat="48.60246" lon="1.97744">
        <ele>122.4</ele>
        <time>2023-01-31T09:26:02Z</time>
      </trkpt>
      <trkpt lat="48.60241" lon="1.97756">
        <ele>121.5</ele>
        <time>2023-01-31T09:26:09Z</time>
      </trkpt>
      <trkpt lat="48.60234" lon="1.97768">
        <ele>120.7</ele>
        <time>2023-01-31T09:26:17Z</time>
      </trkpt>
      <trkpt lat="48.60228" lon="1.97779">
        <ele>120</ele>
        <time>2023-01-31T09:26:25Z</time>
      </trkpt>
      <trkpt lat="48.60221" lon="1.97788">
        <ele>119.6</ele>
        <time>2023-01-31T09:26:33Z</time>
      </trkpt>
      <trkpt lat="48.60216" lon="1.978">
        <ele>119</ele>
        <time>2023-01-31T09:26:40Z</time>
      </trkpt>
      <trkpt lat="48.60211" lon="1.97814">
        <ele>118.1</ele>
        <time>2023-01-31T09:26:46Z</time>
      </trkpt>
      <trkpt lat="48.60205" lon="1.97824">
        <ele>117.5</ele>
        <time>2023-01-31T09:26:52Z</time>
      </trkpt>
      <trkpt lat="48.60199" lon="1.97836">
        <ele>116.9</ele>
        <time>2023-01-31T09:27:00Z</time>
      </trkpt>
      <trkpt lat="48.60193" lon="1.97847">
        <ele>116.5</ele>
        <time>2023-01-31T09:27:07Z</time>
      </trkpt>
      <trkpt lat="48.60189" lon="1.9786">
        <ele>115.8</ele>
        <time>2023-01-31T09:27:14Z</time>
      </trkpt>
      <trkpt lat="48.60185" lon="1.97873">
        <ele>115.2</ele>
        <time>2023-01-31T09:27:21Z</time>
      </trkpt>
      <trkpt lat="48.6018" lon="1.97885">
        <ele>114.6</ele>
        <time>2023-01-31T09:27:28Z</time>
      </trkpt>
      <trkpt lat="48.60175" lon="1.97898">
        <ele>113.9</ele>
        <time>2023-01-31T09:27:36Z</time>
      </trkpt>
      <trkpt lat="48.60169" lon="1.97911">
        <ele>113.2</ele>
        <time>2023-01-31T09:27:44Z</time>
      </trkpt>
      <trkpt lat="48.60164" lon="1.97924">
        <ele>112.3</ele>
        <time>2023-01-31T09:27:52Z</time>
      </trkpt>
      <trkpt lat="48.60158" lon="1.97935">
        <ele>111.4</ele>
        <time>2023-01-31T09:28:01Z</time>
      </trkpt>
      <trkpt lat="48.6015" lon="1.97943">
        <ele>111.1</ele>
        <time>2023-01-31T09:29:47Z</time>
      </trkpt>
      <trkpt lat="48.60141" lon="1.97936">
        <ele>111.1</ele>
        <time>2023-01-31T09:29:55Z</time>
      </trkpt>
      <trkpt lat="48.60133" lon="1.97928">
        <ele>111.4</ele>
        <time>2023-01-31T09:30:03Z</time>
      </trkpt>
      <trkpt lat="48.60125" lon="1.9792">
        <ele>111.6</ele>
        <time>2023-01-31T09:30:12Z</time>
      </trkpt>
      <trkpt lat="48.60117" lon="1.97912">
        <ele>111.9</ele>
        <time>2023-01-31T09:30:20Z</time>
      </trkpt>
      <trkpt lat="48.60109" lon="1.97905">
        <ele>112.2</ele>
        <time>2023-01-31T09:30:29Z</time>
      </trkpt>
      <trkpt lat="48.60102" lon="1.97894">
        <ele>112.5</ele>
        <time>2023-01-31T09:30:37Z</time>
      </trkpt>
      <trkpt lat="48.60093" lon="1.97886">
        <ele>112.6</ele>
        <time>2023-01-31T09:30:44Z</time>
      </trkpt>
      <trkpt lat="48.60085" lon="1.97877">
        <ele>112.9</ele>
        <time>2023-01-31T09:30:51Z</time>
      </trkpt>
      <trkpt lat="48.60077" lon="1.9787">
        <ele>113.5</ele>
        <time>2023-01-31T09:30:58Z</time>
      </trkpt>
      <trkpt lat="48.60069" lon="1.97862">
        <ele>114.1</ele>
        <time>2023-01-31T09:31:06Z</time>
      </trkpt>
      <trkpt lat="48.60061" lon="1.97853">
        <ele>114.4</ele>
        <time>2023-01-31T09:31:13Z</time>
      </trkpt>
      <trkpt lat="48.60054" lon="1.97842">
        <ele>114.5</ele>
        <time>2023-01-31T09:31:21Z</time>
      </trkpt>
      <trkpt lat="48.60045" lon="1.97834">
        <ele>114.8</ele>
        <time>2023-01-31T09:31:29Z</time>
      </trkpt>
      <trkpt lat="48.60036" lon="1.97826">
        <ele>115.3</ele>
        <time>2023-01-31T09:31:37Z</time>
      </trkpt>
      <trkpt lat="48.60028" lon="1.9782">
        <ele>115.5</ele>
        <time>2023-01-31T09:31:45Z</time>
      </trkpt>
      <trkpt lat="48.6002" lon="1.97811">
        <ele>115.7</ele>
        <time>2023-01-31T09:31:52Z</time>
      </trkpt>
      <trkpt lat="48.60013" lon="1.978">
        <ele>116</ele>
        <time>2023-01-31T09:31:59Z</time>
      </trkpt>
      <trkpt lat="48.60005" lon="1.9779">
        <ele>116.2</ele>
        <time>2023-01-31T09:32:06Z</time>
      </trkpt>
      <trkpt lat="48.59998" lon="1.9778">
        <ele>116.3</ele>
        <time>2023-01-31T09:32:12Z</time>
      </trkpt>
      <trkpt lat="48.59993" lon="1.97768">
        <ele>116.6</ele>
        <time>2023-01-31T09:32:19Z</time>
      </trkpt>
      <trkpt lat="48.59987" lon="1.97756">
        <ele>116.7</ele>
        <time>2023-01-31T09:32:27Z</time>
      </trkpt>
      <trkpt lat="48.59982" lon="1.97744">
        <ele>116.9</ele>
        <time>2023-01-31T09:32:35Z</time>
      </trkpt>
      <trkpt lat="48.59977" lon="1.97732">
        <ele>117.1</ele>
        <time>2023-01-31T09:32:43Z</time>
      </trkpt>
      <trkpt lat="48.5997" lon="1.97722">
        <ele>117.1</ele>
        <time>2023-01-31T09:32:51Z</time>
      </trkpt>
      <trkpt lat="48.59963" lon="1.97713">
        <ele>117.2</ele>
        <time>2023-01-31T09:32:59Z</time>
      </trkpt>
      <trkpt lat="48.59956" lon="1.97704">
        <ele>117.2</ele>
        <time>2023-01-31T09:33:06Z</time>
      </trkpt>
      <trkpt lat="48.5995" lon="1.9769">
        <ele>116.8</ele>
        <time>2023-01-31T09:33:13Z</time>
      </trkpt>
      <trkpt lat="48.5995" lon="1.97677">
        <ele>117.1</ele>
        <time>2023-01-31T09:33:21Z</time>
      </trkpt>
      <trkpt lat="48.59949" lon="1.97661">
        <ele>117.5</ele>
        <time>2023-01-31T09:33:29Z</time>
      </trkpt>
      <trkpt lat="48.59943" lon="1.9765">
        <ele>118.2</ele>
        <time>2023-01-31T09:33:37Z</time>
      </trkpt>
      <trkpt lat="48.59937" lon="1.97638">
        <ele>119</ele>
        <time>2023-01-31T09:33:45Z</time>
      </trkpt>
      <trkpt lat="48.59931" lon="1.97628">
        <ele>119.4</ele>
        <time>2023-01-31T09:33:51Z</time>
      </trkpt>
      <trkpt lat="48.59924" lon="1.97617">
        <ele>119.8</ele>
        <time>2023-01-31T09:33:57Z</time>
      </trkpt>
      <trkpt lat="48.59919" lon="1.97606">
        <ele>120.2</ele>
        <time>2023-01-31T09:34:04Z</time>
      </trkpt>
      <trkpt lat="48.59913" lon="1.97594">
        <ele>120.6</ele>
        <time>2023-01-31T09:34:12Z</time>
      </trkpt>
      <trkpt lat="48.59907" lon="1.97584">
        <ele>121</ele>
        <time>2023-01-31T09:34:19Z</time>
      </trkpt>
      <trkpt lat="48.599" lon="1.97573">
        <ele>121.4</ele>
        <time>2023-01-31T09:34:26Z</time>
      </trkpt>
      <trkpt lat="48.59894" lon="1.97562">
        <ele>121.8</ele>
        <time>2023-01-31T09:34:33Z</time>
      </trkpt>
      <trkpt lat="48.59889" lon="1.97549">
        <ele>122</ele>
        <time>2023-01-31T09:34:40Z</time>
      </trkpt>
      <trkpt lat="48.59884" lon="1.97537">
        <ele>121.9</ele>
        <time>2023-01-31T09:34:47Z</time>
      </trkpt>
      <trkpt lat="48.5988" lon="1.97525">
        <ele>122.1</ele>
        <time>2023-01-31T09:34:53Z</time>
      </trkpt>
      <trkpt lat="48.59875" lon="1.97511">
        <ele>122.6</ele>
        <time>2023-01-31T09:35:01Z</time>
      </trkpt>
      <trkpt lat="48.5987" lon="1.97498">
        <ele>123.1</ele>
        <time>2023-01-31T09:35:09Z</time>
      </trkpt>
      <trkpt lat="48.59865" lon="1.97487">
        <ele>123.5</ele>
        <time>2023-01-31T09:35:16Z</time>
      </trkpt>
      <trkpt lat="48.59859" lon="1.97475">
        <ele>123.9</ele>
        <time>2023-01-31T09:35:23Z</time>
      </trkpt>
      <trkpt lat="48.59852" lon="1.97465">
        <ele>124.3</ele>
        <time>2023-01-31T09:35:30Z</time>
      </trkpt>
      <trkpt lat="48.59846" lon="1.97454">
        <ele>124.6</ele>
        <time>2023-01-31T09:35:39Z</time>
      </trkpt>
      <trkpt lat="48.59839" lon="1.97445">
        <ele>125</ele>
        <time>2023-01-31T09:35:45Z</time>
      </trkpt>
      <trkpt lat="48.59833" lon="1.97434">
        <ele>125.4</ele>
        <time>2023-01-31T09:35:52Z</time>
      </trkpt>
      <trkpt lat="48.59827" lon="1.97424">
        <ele>125.7</ele>
        <time>2023-01-31T09:35:59Z</time>
      </trkpt>
      <trkpt lat="48.5982" lon="1.97414">
        <ele>126.1</ele>
        <time>2023-01-31T09:36:07Z</time>
      </trkpt>
      <trkpt lat="48.59816" lon="1.97401">
        <ele>126.6</ele>
        <time>2023-01-31T09:36:16Z</time>
      </trkpt>
      <trkpt lat="48.59811" lon="1.97388">
        <ele>127</ele>
        <time>2023-01-31T09:36:24Z</time>
      </trkpt>
      <trkpt lat="48.59804" lon="1.97376">
        <ele>127.5</ele>
        <time>2023-01-31T09:36:31Z</time>
      </trkpt>
      <trkpt lat="48.59799" lon="1.97365">
        <ele>127.9</ele>
        <time>2023-01-31T09:36:38Z</time>
      </trkpt>
      <trkpt lat="48.59793" lon="1.97355">
        <ele>128.2</ele>
        <time>2023-01-31T09:36:45Z</time>
      </trkpt>
      <trkpt lat="48.59787" lon="1.97342">
        <ele>128.7</ele>
        <time>2023-01-31T09:36:53Z</time>
      </trkpt>
      <trkpt lat="48.5978" lon="1.97331">
        <ele>129.1</ele>
        <time>2023-01-31T09:37:01Z</time>
      </trkpt>
      <trkpt lat="48.59775" lon="1.97319">
        <ele>129.6</ele>
        <time>2023-01-31T09:37:09Z</time>
      </trkpt>
      <trkpt lat="48.59771" lon="1.97304">
        <ele>130.3</ele>
        <time>2023-01-31T09:37:16Z</time>
      </trkpt>
      <trkpt lat="48.59765" lon="1.97292">
        <ele>130.7</ele>
        <time>2023-01-31T09:37:23Z</time>
      </trkpt>
      <trkpt lat="48.59758" lon="1.97281">
        <ele>131</ele>
        <time>2023-01-31T09:37:32Z</time>
      </trkpt>
      <trkpt lat="48.59752" lon="1.9727">
        <ele>131.3</ele>
        <time>2023-01-31T09:37:41Z</time>
      </trkpt>
      <trkpt lat="48.59746" lon="1.97258">
        <ele>131.6</ele>
        <time>2023-01-31T09:37:48Z</time>
      </trkpt>
      <trkpt lat="48.59745" lon="1.97244">
        <ele>131.8</ele>
        <time>2023-01-31T09:38:00Z</time>
      </trkpt>
      <trkpt lat="48.59753" lon="1.97234">
        <ele>132</ele>
        <time>2023-01-31T09:38:08Z</time>
      </trkpt>
      <trkpt lat="48.59762" lon="1.97229">
        <ele>132</ele>
        <time>2023-01-31T09:38:15Z</time>
      </trkpt>
      <trkpt lat="48.59772" lon="1.97227">
        <ele>132</ele>
        <time>2023-01-31T09:38:22Z</time>
      </trkpt>
      <trkpt lat="48.59781" lon="1.97226">
        <ele>132</ele>
        <time>2023-01-31T09:38:28Z</time>
      </trkpt>
      <trkpt lat="48.59791" lon="1.97222">
        <ele>132</ele>
        <time>2023-01-31T09:38:36Z</time>
      </trkpt>
      <trkpt lat="48.598" lon="1.97214">
        <ele>132.3</ele>
        <time>2023-01-31T09:38:43Z</time>
      </trkpt>
      <trkpt lat="48.59809" lon="1.97209">
        <ele>132.5</ele>
        <time>2023-01-31T09:38:48Z</time>
      </trkpt>
      <trkpt lat="48.59818" lon="1.97206">
        <ele>132.6</ele>
        <time>2023-01-31T09:38:56Z</time>
      </trkpt>
      <trkpt lat="48.59828" lon="1.97201">
        <ele>132.8</ele>
        <time>2023-01-31T09:39:02Z</time>
      </trkpt>
      <trkpt lat="48.59836" lon="1.97195">
        <ele>133</ele>
        <time>2023-01-31T09:39:08Z</time>
      </trkpt>
      <trkpt lat="48.59845" lon="1.97194">
        <ele>133</ele>
        <time>2023-01-31T09:39:14Z</time>
      </trkpt>
      <trkpt lat="48.59855" lon="1.9719">
        <ele>133.1</ele>
        <time>2023-01-31T09:39:21Z</time>
      </trkpt>
      <trkpt lat="48.5986" lon="1.97179">
        <ele>133.6</ele>
        <time>2023-01-31T09:39:36Z</time>
      </trkpt>
      <trkpt lat="48.5987" lon="1.97178">
        <ele>133.9</ele>
        <time>2023-01-31T09:39:42Z</time>
      </trkpt>
      <trkpt lat="48.5988" lon="1.97175">
        <ele>134.4</ele>
        <time>2023-01-31T09:39:48Z</time>
      </trkpt>
      <trkpt lat="48.59889" lon="1.97172">
        <ele>134.8</ele>
        <time>2023-01-31T09:39:53Z</time>
      </trkpt>
      <trkpt lat="48.59898" lon="1.97168">
        <ele>135.3</ele>
        <time>2023-01-31T09:39:58Z</time>
      </trkpt>
      <trkpt lat="48.59907" lon="1.97164">
        <ele>135.7</ele>
        <time>2023-01-31T09:40:05Z</time>
      </trkpt>
      <trkpt lat="48.59915" lon="1.97159">
        <ele>136.2</ele>
        <time>2023-01-31T09:40:14Z</time>
      </trkpt>
      <trkpt lat="48.59925" lon="1.97155">
        <ele>136.6</ele>
        <time>2023-01-31T09:40:22Z</time>
      </trkpt>
      <trkpt lat="48.59934" lon="1.97153">
        <ele>136.8</ele>
        <time>2023-01-31T09:40:30Z</time>
      </trkpt>
      <trkpt lat="48.59944" lon="1.97152">
        <ele>137</ele>
        <time>2023-01-31T09:40:36Z</time>
      </trkpt>
      <trkpt lat="48.59954" lon="1.97149">
        <ele>137.2</ele>
        <time>2023-01-31T09:40:43Z</time>
      </trkpt>
      <trkpt lat="48.59963" lon="1.97146">
        <ele>137.5</ele>
        <time>2023-01-31T09:40:49Z</time>
      </trkpt>
      <trkpt lat="48.59972" lon="1.97145">
        <ele>137.6</ele>
        <time>2023-01-31T09:40:55Z</time>
      </trkpt>
      <trkpt lat="48.59982" lon="1.97145">
        <ele>138</ele>
        <time>2023-01-31T09:41:03Z</time>
      </trkpt>
      <trkpt lat="48.59992" lon="1.97143">
        <ele>138.5</ele>
        <time>2023-01-31T09:41:10Z</time>
      </trkpt>
      <trkpt lat="48.60002" lon="1.9714">
        <ele>139</ele>
        <time>2023-01-31T09:41:16Z</time>
      </trkpt>
      <trkpt lat="48.60011" lon="1.97138">
        <ele>139.4</ele>
        <time>2023-01-31T09:41:22Z</time>
      </trkpt>
      <trkpt lat="48.60021" lon="1.97137">
        <ele>139.7</ele>
        <time>2023-01-31T09:41:28Z</time>
      </trkpt>
      <trkpt lat="48.6003" lon="1.97131">
        <ele>139.8</ele>
        <time>2023-01-31T09:41:35Z</time>
      </trkpt>
      <trkpt lat="48.60038" lon="1.97123">
        <ele>140</ele>
        <time>2023-01-31T09:41:42Z</time>
      </trkpt>
      <trkpt lat="48.60045" lon="1.97113">
        <ele>139.8</ele>
        <time>2023-01-31T09:41:50Z</time>
      </trkpt>
      <trkpt lat="48.60052" lon="1.97104">
        <ele>139.7</ele>
        <time>2023-01-31T09:41:59Z</time>
      </trkpt>
      <trkpt lat="48.6006" lon="1.97096">
        <ele>139.6</ele>
        <time>2023-01-31T09:42:08Z</time>
      </trkpt>
      <trkpt lat="48.60069" lon="1.97091">
        <ele>139.5</ele>
        <time>2023-01-31T09:42:16Z</time>
      </trkpt>
      <trkpt lat="48.60079" lon="1.97085">
        <ele>139.2</ele>
        <time>2023-01-31T09:42:23Z</time>
      </trkpt>
      <trkpt lat="48.60087" lon="1.97081">
        <ele>138.5</ele>
        <time>2023-01-31T09:42:30Z</time>
      </trkpt>
      <trkpt lat="48.60097" lon="1.97079">
        <ele>137.7</ele>
        <time>2023-01-31T09:42:37Z</time>
      </trkpt>
      <trkpt lat="48.60107" lon="1.97078">
        <ele>136.9</ele>
        <time>2023-01-31T09:42:44Z</time>
      </trkpt>
      <trkpt lat="48.60116" lon="1.97077">
        <ele>136.2</ele>
        <time>2023-01-31T09:42:50Z</time>
      </trkpt>
      <trkpt lat="48.60125" lon="1.97079">
        <ele>135.7</ele>
        <time>2023-01-31T09:42:57Z</time>
      </trkpt>
      <trkpt lat="48.60134" lon="1.97082">
        <ele>135.2</ele>
        <time>2023-01-31T09:43:04Z</time>
      </trkpt>
      <trkpt lat="48.60144" lon="1.97083">
        <ele>134.4</ele>
        <time>2023-01-31T09:43:13Z</time>
      </trkpt>
      <trkpt lat="48.60153" lon="1.97082">
        <ele>133.3</ele>
        <time>2023-01-31T09:43:20Z</time>
      </trkpt>
      <trkpt lat="48.60163" lon="1.97082">
        <ele>132.2</ele>
        <time>2023-01-31T09:43:28Z</time>
      </trkpt>
      <trkpt lat="48.60173" lon="1.97085">
        <ele>131.6</ele>
        <time>2023-01-31T09:43:36Z</time>
      </trkpt>
      <trkpt lat="48.60183" lon="1.97085">
        <ele>130.9</ele>
        <time>2023-01-31T09:43:47Z</time>
      </trkpt>
      <trkpt lat="48.60192" lon="1.97088">
        <ele>130.3</ele>
        <time>2023-01-31T09:43:53Z</time>
      </trkpt>
      <trkpt lat="48.60203" lon="1.97091">
        <ele>129.4</ele>
        <time>2023-01-31T09:44:01Z</time>
      </trkpt>
      <trkpt lat="48.60213" lon="1.97093">
        <ele>128.4</ele>
        <time>2023-01-31T09:44:08Z</time>
      </trkpt>
      <trkpt lat="48.60223" lon="1.97098">
        <ele>127.5</ele>
        <time>2023-01-31T09:44:17Z</time>
      </trkpt>
      <trkpt lat="48.60231" lon="1.97105">
        <ele>126.9</ele>
        <time>2023-01-31T09:44:26Z</time>
      </trkpt>
      <trkpt lat="48.60241" lon="1.97106">
        <ele>125.8</ele>
        <time>2023-01-31T09:44:31Z</time>
      </trkpt>
      <trkpt lat="48.6025" lon="1.97104">
        <ele>124.7</ele>
        <time>2023-01-31T09:44:37Z</time>
      </trkpt>
      <trkpt lat="48.60257" lon="1.97094">
        <ele>123.9</ele>
        <time>2023-01-31T09:44:46Z</time>
      </trkpt>
      <trkpt lat="48.60264" lon="1.97084">
        <ele>123</ele>
        <time>2023-01-31T09:44:56Z</time>
      </trkpt>
      <trkpt lat="48.6027" lon="1.97072">
        <ele>122.5</ele>
        <time>2023-01-31T09:45:06Z</time>
      </trkpt>
      <trkpt lat="48.60278" lon="1.97062">
        <ele>122</ele>
        <time>2023-01-31T09:45:14Z</time>
      </trkpt>
      <trkpt lat="48.60283" lon="1.9705">
        <ele>121.5</ele>
        <time>2023-01-31T09:45:22Z</time>
      </trkpt>
      <trkpt lat="48.60286" lon="1.97036">
        <ele>120.9</ele>
        <time>2023-01-31T09:45:30Z</time>
      </trkpt>
      <trkpt lat="48.60283" lon="1.97021">
        <ele>120.8</ele>
        <time>2023-01-31T09:45:36Z</time>
      </trkpt>
      <trkpt lat="48.60279" lon="1.97009">
        <ele>121</ele>
        <time>2023-01-31T09:45:41Z</time>
      </trkpt>
      <trkpt lat="48.60276" lon="1.96995">
        <ele>121.2</ele>
        <time>2023-01-31T09:45:47Z</time>
      </trkpt>
      <trkpt lat="48.60273" lon="1.96981">
        <ele>121.4</ele>
        <time>2023-01-31T09:45:54Z</time>
      </trkpt>
      <trkpt lat="48.60273" lon="1.96967">
        <ele>121.5</ele>
        <time>2023-01-31T09:46:00Z</time>
      </trkpt>
      <trkpt lat="48.60268" lon="1.96955">
        <ele>122.1</ele>
        <time>2023-01-31T09:46:06Z</time>
      </trkpt>
      <trkpt lat="48.60266" lon="1.9694">
        <ele>122.4</ele>
        <time>2023-01-31T09:46:14Z</time>
      </trkpt>
      <trkpt lat="48.60259" lon="1.9693">
        <ele>122.7</ele>
        <time>2023-01-31T09:46:20Z</time>
      </trkpt>
      <trkpt lat="48.60254" lon="1.96918">
        <ele>122.9</ele>
        <time>2023-01-31T09:46:27Z</time>
      </trkpt>
      <trkpt lat="48.60248" lon="1.96905">
        <ele>123.5</ele>
        <time>2023-01-31T09:46:35Z</time>
      </trkpt>
      <trkpt lat="48.60242" lon="1.96894">
        <ele>124.2</ele>
        <time>2023-01-31T09:46:44Z</time>
      </trkpt>
      <trkpt lat="48.60238" lon="1.96881">
        <ele>124.6</ele>
        <time>2023-01-31T09:46:51Z</time>
      </trkpt>
      <trkpt lat="48.60233" lon="1.96868">
        <ele>125.1</ele>
        <time>2023-01-31T09:46:57Z</time>
      </trkpt>
      <trkpt lat="48.60231" lon="1.96854">
        <ele>125.5</ele>
        <time>2023-01-31T09:47:04Z</time>
      </trkpt>
      <trkpt lat="48.60226" lon="1.96841">
        <ele>125.8</ele>
        <time>2023-01-31T09:47:12Z</time>
      </trkpt>
      <trkpt lat="48.60221" lon="1.96828">
        <ele>126.3</ele>
        <time>2023-01-31T09:47:20Z</time>
      </trkpt>
      <trkpt lat="48.60217" lon="1.96815">
        <ele>126.9</ele>
        <time>2023-01-31T09:47:27Z</time>
      </trkpt>
      <trkpt lat="48.60214" lon="1.96802">
        <ele>127.4</ele>
        <time>2023-01-31T09:47:34Z</time>
      </trkpt>
      <trkpt lat="48.6021" lon="1.96788">
        <ele>127.7</ele>
        <time>2023-01-31T09:47:41Z</time>
      </trkpt>
      <trkpt lat="48.60207" lon="1.96775">
        <ele>128.1</ele>
        <time>2023-01-31T09:47:48Z</time>
      </trkpt>
      <trkpt lat="48.60207" lon="1.9676">
        <ele>128.1</ele>
        <time>2023-01-31T09:47:56Z</time>
      </trkpt>
      <trkpt lat="48.60204" lon="1.96746">
        <ele>128.3</ele>
        <time>2023-01-31T09:48:03Z</time>
      </trkpt>
      <trkpt lat="48.60199" lon="1.96734">
        <ele>128.7</ele>
        <time>2023-01-31T09:48:11Z</time>
      </trkpt>
      <trkpt lat="48.60196" lon="1.96719">
        <ele>128.9</ele>
        <time>2023-01-31T09:48:18Z</time>
      </trkpt>
      <trkpt lat="48.60193" lon="1.96706">
        <ele>129.1</ele>
        <time>2023-01-31T09:48:25Z</time>
      </trkpt>
      <trkpt lat="48.60192" lon="1.96692">
        <ele>129.1</ele>
        <time>2023-01-31T09:48:33Z</time>
      </trkpt>
      <trkpt lat="48.6019" lon="1.96678">
        <ele>129.3</ele>
        <time>2023-01-31T09:48:41Z</time>
      </trkpt>
      <trkpt lat="48.60193" lon="1.96664">
        <ele>129.2</ele>
        <time>2023-01-31T09:48:49Z</time>
      </trkpt>
      <trkpt lat="48.60197" lon="1.96652">
        <ele>129.4</ele>
        <time>2023-01-31T09:48:56Z</time>
      </trkpt>
      <trkpt lat="48.60197" lon="1.96637">
        <ele>129.9</ele>
        <time>2023-01-31T09:49:04Z</time>
      </trkpt>
      <trkpt lat="48.60198" lon="1.96623">
        <ele>129.9</ele>
        <time>2023-01-31T09:49:13Z</time>
      </trkpt>
      <trkpt lat="48.60198" lon="1.96608">
        <ele>130.1</ele>
        <time>2023-01-31T09:49:20Z</time>
      </trkpt>
      <trkpt lat="48.60198" lon="1.96594">
        <ele>130.6</ele>
        <time>2023-01-31T09:49:28Z</time>
      </trkpt>
      <trkpt lat="48.60199" lon="1.96579">
        <ele>131.2</ele>
        <time>2023-01-31T09:49:36Z</time>
      </trkpt>
      <trkpt lat="48.60198" lon="1.96563">
        <ele>131.7</ele>
        <time>2023-01-31T09:49:44Z</time>
      </trkpt>
      <trkpt lat="48.60201" lon="1.96549">
        <ele>132.2</ele>
        <time>2023-01-31T09:49:51Z</time>
      </trkpt>
      <trkpt lat="48.60203" lon="1.96535">
        <ele>132.7</ele>
        <time>2023-01-31T09:49:58Z</time>
      </trkpt>
      <trkpt lat="48.60205" lon="1.96521">
        <ele>133.1</ele>
        <time>2023-01-31T09:50:05Z</time>
      </trkpt>
      <trkpt lat="48.60206" lon="1.96506">
        <ele>133.4</ele>
        <time>2023-01-31T09:50:13Z</time>
      </trkpt>
      <trkpt lat="48.60203" lon="1.96493">
        <ele>133.8</ele>
        <time>2023-01-31T09:50:19Z</time>
      </trkpt>
      <trkpt lat="48.602" lon="1.96479">
        <ele>134.1</ele>
        <time>2023-01-31T09:50:25Z</time>
      </trkpt>
      <trkpt lat="48.60197" lon="1.96465">
        <ele>134.3</ele>
        <time>2023-01-31T09:50:31Z</time>
      </trkpt>
      <trkpt lat="48.60194" lon="1.96452">
        <ele>134.7</ele>
        <time>2023-01-31T09:50:37Z</time>
      </trkpt>
      <trkpt lat="48.60192" lon="1.96436">
        <ele>135.4</ele>
        <time>2023-01-31T09:50:44Z</time>
      </trkpt>
      <trkpt lat="48.60191" lon="1.96422">
        <ele>136</ele>
        <time>2023-01-31T09:50:51Z</time>
      </trkpt>
      <trkpt lat="48.60189" lon="1.96407">
        <ele>136.5</ele>
        <time>2023-01-31T09:50:58Z</time>
      </trkpt>
      <trkpt lat="48.6019" lon="1.96393">
        <ele>136.9</ele>
        <time>2023-01-31T09:51:07Z</time>
      </trkpt>
      <trkpt lat="48.60188" lon="1.96378">
        <ele>137</ele>
        <time>2023-01-31T09:51:15Z</time>
      </trkpt>
      <trkpt lat="48.60184" lon="1.96365">
        <ele>137</ele>
        <time>2023-01-31T09:51:21Z</time>
      </trkpt>
      <trkpt lat="48.60179" lon="1.96352">
        <ele>136.8</ele>
        <time>2023-01-31T09:51:28Z</time>
      </trkpt>
      <trkpt lat="48.60177" lon="1.96339">
        <ele>136.5</ele>
        <time>2023-01-31T09:51:34Z</time>
      </trkpt>
      <trkpt lat="48.60176" lon="1.96324">
        <ele>136.3</ele>
        <time>2023-01-31T09:51:41Z</time>
      </trkpt>
      <trkpt lat="48.60175" lon="1.96309">
        <ele>136.3</ele>
        <time>2023-01-31T09:51:48Z</time>
      </trkpt>
      <trkpt lat="48.60171" lon="1.96296">
        <ele>135.8</ele>
        <time>2023-01-31T09:51:55Z</time>
      </trkpt>
      <trkpt lat="48.60165" lon="1.96284">
        <ele>135.2</ele>
        <time>2023-01-31T09:52:02Z</time>
      </trkpt>
      <trkpt lat="48.60159" lon="1.96273">
        <ele>134.5</ele>
        <time>2023-01-31T09:52:09Z</time>
      </trkpt>
      <trkpt lat="48.60152" lon="1.96263">
        <ele>133.6</ele>
        <time>2023-01-31T09:52:17Z</time>
      </trkpt>
      <trkpt lat="48.60146" lon="1.96251">
        <ele>132.6</ele>
        <time>2023-01-31T09:52:26Z</time>
      </trkpt>
      <trkpt lat="48.6014" lon="1.9624">
        <ele>131.4</ele>
        <time>2023-01-31T09:52:35Z</time>
      </trkpt>
      <trkpt lat="48.60142" lon="1.96226">
        <ele>130.5</ele>
        <time>2023-01-31T09:52:45Z</time>
      </trkpt>
      <trkpt lat="48.60147" lon="1.96214">
        <ele>130.2</ele>
        <time>2023-01-31T09:52:54Z</time>
      </trkpt>
      <trkpt lat="48.6015" lon="1.96201">
        <ele>129.7</ele>
        <time>2023-01-31T09:53:02Z</time>
      </trkpt>
      <trkpt lat="48.6015" lon="1.96186">
        <ele>129.3</ele>
        <time>2023-01-31T09:53:10Z</time>
      </trkpt>
      <trkpt lat="48.6015" lon="1.96172">
        <ele>129.1</ele>
        <time>2023-01-31T09:53:19Z</time>
      </trkpt>
      <trkpt lat="48.60155" lon="1.9616">
        <ele>128.8</ele>
        <time>2023-01-31T09:54:16Z</time>
      </trkpt>
      <trkpt lat="48.6015" lon="1.96146">
        <ele>128.1</ele>
        <time>2023-01-31T09:54:23Z</time>
      </trkpt>
      <trkpt lat="48.60149" lon="1.96132">
        <ele>127.5</ele>
        <time>2023-01-31T09:54:31Z</time>
      </trkpt>
      <trkpt lat="48.60144" lon="1.96119">
        <ele>126.7</ele>
        <time>2023-01-31T09:54:39Z</time>
      </trkpt>
      <trkpt lat="48.6014" lon="1.96108">
        <ele>125.9</ele>
        <time>2023-01-31T09:54:46Z</time>
      </trkpt>
      <trkpt lat="48.60137" lon="1.96094">
        <ele>126.1</ele>
        <time>2023-01-31T09:54:54Z</time>
      </trkpt>
      <trkpt lat="48.60137" lon="1.9608">
        <ele>125.3</ele>
        <time>2023-01-31T09:56:29Z</time>
      </trkpt>
      <trkpt lat="48.60134" lon="1.96066">
        <ele>125</ele>
        <time>2023-01-31T09:56:37Z</time>
      </trkpt>
      <trkpt lat="48.60131" lon="1.96053">
        <ele>125</ele>
        <time>2023-01-31T09:56:45Z</time>
      </trkpt>
      <trkpt lat="48.60128" lon="1.96039">
        <ele>124.9</ele>
        <time>2023-01-31T09:56:54Z</time>
      </trkpt>
      <trkpt lat="48.60126" lon="1.96025">
        <ele>124.6</ele>
        <time>2023-01-31T09:57:03Z</time>
      </trkpt>
      <trkpt lat="48.60124" lon="1.96011">
        <ele>124.2</ele>
        <time>2023-01-31T09:57:11Z</time>
      </trkpt>
      <trkpt lat="48.60123" lon="1.95996">
        <ele>123.6</ele>
        <time>2023-01-31T09:57:20Z</time>
      </trkpt>
      <trkpt lat="48.60124" lon="1.95981">
        <ele>123</ele>
        <time>2023-01-31T09:57:29Z</time>
      </trkpt>
      <trkpt lat="48.60121" lon="1.95966">
        <ele>122.5</ele>
        <time>2023-01-31T09:57:38Z</time>
      </trkpt>
      <trkpt lat="48.60119" lon="1.95952">
        <ele>121.7</ele>
        <time>2023-01-31T09:57:46Z</time>
      </trkpt>
      <trkpt lat="48.60118" lon="1.95938">
        <ele>120.9</ele>
        <time>2023-01-31T09:57:54Z</time>
      </trkpt>
      <trkpt lat="48.60112" lon="1.95926">
        <ele>120.5</ele>
        <time>2023-01-31T09:58:02Z</time>
      </trkpt>
      <trkpt lat="48.60107" lon="1.95915">
        <ele>120.3</ele>
        <time>2023-01-31T09:58:09Z</time>
      </trkpt>
      <trkpt lat="48.60102" lon="1.95901">
        <ele>119.7</ele>
        <time>2023-01-31T09:58:17Z</time>
      </trkpt>
      <trkpt lat="48.60096" lon="1.95889">
        <ele>119.1</ele>
        <time>2023-01-31T09:58:25Z</time>
      </trkpt>
      <trkpt lat="48.60091" lon="1.95878">
        <ele>118.7</ele>
        <time>2023-01-31T09:58:32Z</time>
      </trkpt>
      <trkpt lat="48.60084" lon="1.95867">
        <ele>118.4</ele>
        <time>2023-01-31T09:58:39Z</time>
      </trkpt>
      <trkpt lat="48.60076" lon="1.9586">
        <ele>118.7</ele>
        <time>2023-01-31T09:58:46Z</time>
      </trkpt>
      <trkpt lat="48.60067" lon="1.95854">
        <ele>119.3</ele>
        <time>2023-01-31T09:58:53Z</time>
      </trkpt>
      <trkpt lat="48.60059" lon="1.95846">
        <ele>119.6</ele>
        <time>2023-01-31T09:59:02Z</time>
      </trkpt>
      <trkpt lat="48.60054" lon="1.95834">
        <ele>119.2</ele>
        <time>2023-01-31T09:59:09Z</time>
      </trkpt>
      <trkpt lat="48.60048" lon="1.95823">
        <ele>120</ele>
        <time>2023-01-31T09:59:16Z</time>
      </trkpt>
      <trkpt lat="48.60042" lon="1.95811">
        <ele>120.6</ele>
        <time>2023-01-31T09:59:23Z</time>
      </trkpt>
      <trkpt lat="48.60036" lon="1.95798">
        <ele>121</ele>
        <time>2023-01-31T09:59:31Z</time>
      </trkpt>
      <trkpt lat="48.60031" lon="1.95785">
        <ele>121.6</ele>
        <time>2023-01-31T09:59:38Z</time>
      </trkpt>
      <trkpt lat="48.60027" lon="1.95772">
        <ele>121.9</ele>
        <time>2023-01-31T09:59:44Z</time>
      </trkpt>
      <trkpt lat="48.60025" lon="1.95759">
        <ele>121.8</ele>
        <time>2023-01-31T09:59:51Z</time>
      </trkpt>
      <trkpt lat="48.60019" lon="1.95747">
        <ele>122.4</ele>
        <time>2023-01-31T09:59:58Z</time>
      </trkpt>
      <trkpt lat="48.60015" lon="1.95735">
        <ele>122.5</ele>
        <time>2023-01-31T10:00:05Z</time>
      </trkpt>
      <trkpt lat="48.60008" lon="1.95724">
        <ele>122.9</ele>
        <time>2023-01-31T10:00:12Z</time>
      </trkpt>
      <trkpt lat="48.60002" lon="1.95713">
        <ele>123.3</ele>
        <time>2023-01-31T10:00:18Z</time>
      </trkpt>
      <trkpt lat="48.59995" lon="1.95702">
        <ele>123.7</ele>
        <time>2023-01-31T10:00:26Z</time>
      </trkpt>
      <trkpt lat="48.59989" lon="1.95692">
        <ele>123.7</ele>
        <time>2023-01-31T10:00:34Z</time>
      </trkpt>
      <trkpt lat="48.59981" lon="1.95683">
        <ele>123.9</ele>
        <time>2023-01-31T10:00:42Z</time>
      </trkpt>
      <trkpt lat="48.59972" lon="1.95677">
        <ele>124.4</ele>
        <time>2023-01-31T10:00:48Z</time>
      </trkpt>
      <trkpt lat="48.59963" lon="1.95672">
        <ele>124.5</ele>
        <time>2023-01-31T10:00:56Z</time>
      </trkpt>
      <trkpt lat="48.59953" lon="1.95668">
        <ele>124.8</ele>
        <time>2023-01-31T10:01:05Z</time>
      </trkpt>
      <trkpt lat="48.59944" lon="1.95664">
        <ele>124.9</ele>
        <time>2023-01-31T10:01:13Z</time>
      </trkpt>
      <trkpt lat="48.59935" lon="1.95666">
        <ele>124.6</ele>
        <time>2023-01-31T10:01:21Z</time>
      </trkpt>
      <trkpt lat="48.59925" lon="1.9567">
        <ele>124.4</ele>
        <time>2023-01-31T10:01:29Z</time>
      </trkpt>
      <trkpt lat="48.59916" lon="1.95671">
        <ele>124.1</ele>
        <time>2023-01-31T10:01:38Z</time>
      </trkpt>
      <trkpt lat="48.59905" lon="1.95673">
        <ele>123.7</ele>
        <time>2023-01-31T10:01:45Z</time>
      </trkpt>
      <trkpt lat="48.59895" lon="1.95674">
        <ele>123.3</ele>
        <time>2023-01-31T10:01:52Z</time>
      </trkpt>
      <trkpt lat="48.59885" lon="1.95675">
        <ele>122.8</ele>
        <time>2023-01-31T10:02:02Z</time>
      </trkpt>
      <trkpt lat="48.59876" lon="1.95673">
        <ele>122.2</ele>
        <time>2023-01-31T10:02:09Z</time>
      </trkpt>
      <trkpt lat="48.59868" lon="1.95678">
        <ele>121.8</ele>
        <time>2023-01-31T10:02:16Z</time>
      </trkpt>
      <trkpt lat="48.5986" lon="1.95688">
        <ele>121.7</ele>
        <time>2023-01-31T10:02:23Z</time>
      </trkpt>
      <trkpt lat="48.59855" lon="1.957">
        <ele>122</ele>
        <time>2023-01-31T10:02:30Z</time>
      </trkpt>
      <trkpt lat="48.5985" lon="1.95713">
        <ele>122.3</ele>
        <time>2023-01-31T10:02:38Z</time>
      </trkpt>
      <trkpt lat="48.59844" lon="1.95725">
        <ele>122.5</ele>
        <time>2023-01-31T10:02:46Z</time>
      </trkpt>
      <trkpt lat="48.5984" lon="1.9574">
        <ele>122.7</ele>
        <time>2023-01-31T10:02:54Z</time>
      </trkpt>
      <trkpt lat="48.59835" lon="1.95752">
        <ele>123</ele>
        <time>2023-01-31T10:03:01Z</time>
      </trkpt>
      <trkpt lat="48.59829" lon="1.95764">
        <ele>122.9</ele>
        <time>2023-01-31T10:03:09Z</time>
      </trkpt>
      <trkpt lat="48.59823" lon="1.95774">
        <ele>122.9</ele>
        <time>2023-01-31T10:03:16Z</time>
      </trkpt>
      <trkpt lat="48.59816" lon="1.95783">
        <ele>123.1</ele>
        <time>2023-01-31T10:03:23Z</time>
      </trkpt>
      <trkpt lat="48.5981" lon="1.95794">
        <ele>123.1</ele>
        <time>2023-01-31T10:03:29Z</time>
      </trkpt>
      <trkpt lat="48.59804" lon="1.95805">
        <ele>123</ele>
        <time>2023-01-31T10:03:36Z</time>
      </trkpt>
      <trkpt lat="48.59797" lon="1.95816">
        <ele>123.4</ele>
        <time>2023-01-31T10:03:45Z</time>
      </trkpt>
      <trkpt lat="48.59793" lon="1.95828">
        <ele>123.8</ele>
        <time>2023-01-31T10:03:52Z</time>
      </trkpt>
      <trkpt lat="48.59788" lon="1.95842">
        <ele>124.3</ele>
        <time>2023-01-31T10:03:58Z</time>
      </trkpt>
      <trkpt lat="48.59784" lon="1.95856">
        <ele>124.8</ele>
        <time>2023-01-31T10:04:05Z</time>
      </trkpt>
      <trkpt lat="48.59778" lon="1.95868">
        <ele>125.2</ele>
        <time>2023-01-31T10:04:14Z</time>
      </trkpt>
      <trkpt lat="48.59773" lon="1.95879">
        <ele>125.5</ele>
        <time>2023-01-31T10:04:22Z</time>
      </trkpt>
      <trkpt lat="48.59768" lon="1.95893">
        <ele>125.8</ele>
        <time>2023-01-31T10:04:29Z</time>
      </trkpt>
      <trkpt lat="48.59761" lon="1.95903">
        <ele>125.9</ele>
        <time>2023-01-31T10:04:37Z</time>
      </trkpt>
      <trkpt lat="48.59756" lon="1.95915">
        <ele>126.1</ele>
        <time>2023-01-31T10:04:45Z</time>
      </trkpt>
      <trkpt lat="48.5975" lon="1.95928">
        <ele>126.8</ele>
        <time>2023-01-31T10:04:52Z</time>
      </trkpt>
      <trkpt lat="48.59744" lon="1.9594">
        <ele>127.5</ele>
        <time>2023-01-31T10:04:59Z</time>
      </trkpt>
      <trkpt lat="48.5974" lon="1.95953">
        <ele>127.9</ele>
        <time>2023-01-31T10:05:06Z</time>
      </trkpt>
      <trkpt lat="48.59735" lon="1.95966">
        <ele>128.2</ele>
        <time>2023-01-31T10:05:13Z</time>
      </trkpt>
      <trkpt lat="48.5973" lon="1.95978">
        <ele>128.5</ele>
        <time>2023-01-31T10:05:19Z</time>
      </trkpt>
      <trkpt lat="48.59725" lon="1.9599">
        <ele>128.7</ele>
        <time>2023-01-31T10:05:27Z</time>
      </trkpt>
      <trkpt lat="48.59721" lon="1.96003">
        <ele>129.1</ele>
        <time>2023-01-31T10:05:34Z</time>
      </trkpt>
      <trkpt lat="48.59716" lon="1.96015">
        <ele>129.3</ele>
        <time>2023-01-31T10:05:42Z</time>
      </trkpt>
      <trkpt lat="48.5971" lon="1.96028">
        <ele>129.6</ele>
        <time>2023-01-31T10:05:48Z</time>
      </trkpt>
      <trkpt lat="48.59703" lon="1.96039">
        <ele>130</ele>
        <time>2023-01-31T10:05:55Z</time>
      </trkpt>
      <trkpt lat="48.59698" lon="1.9605">
        <ele>130.6</ele>
        <time>2023-01-31T10:06:02Z</time>
      </trkpt>
      <trkpt lat="48.59692" lon="1.96061">
        <ele>131.7</ele>
        <time>2023-01-31T10:06:10Z</time>
      </trkpt>
      <trkpt lat="48.59687" lon="1.96075">
        <ele>133.1</ele>
        <time>2023-01-31T10:06:19Z</time>
      </trkpt>
      <trkpt lat="48.59682" lon="1.96087">
        <ele>134.3</ele>
        <time>2023-01-31T10:06:27Z</time>
      </trkpt>
      <trkpt lat="48.59677" lon="1.96099">
        <ele>135.1</ele>
        <time>2023-01-31T10:06:36Z</time>
      </trkpt>
      <trkpt lat="48.59672" lon="1.9611">
        <ele>135.9</ele>
        <time>2023-01-31T10:06:44Z</time>
      </trkpt>
      <trkpt lat="48.59667" lon="1.96123">
        <ele>136.8</ele>
        <time>2023-01-31T10:06:54Z</time>
      </trkpt>
      <trkpt lat="48.5966" lon="1.96133">
        <ele>137.3</ele>
        <time>2023-01-31T10:07:03Z</time>
      </trkpt>
      <trkpt lat="48.59653" lon="1.96145">
        <ele>138.2</ele>
        <time>2023-01-31T10:07:13Z</time>
      </trkpt>
      <trkpt lat="48.59648" lon="1.96157">
        <ele>139.3</ele>
        <time>2023-01-31T10:07:21Z</time>
      </trkpt>
      <trkpt lat="48.59642" lon="1.96168">
        <ele>140.3</ele>
        <time>2023-01-31T10:07:30Z</time>
      </trkpt>
      <trkpt lat="48.59636" lon="1.96179">
        <ele>141.8</ele>
        <time>2023-01-31T10:07:40Z</time>
      </trkpt>
      <trkpt lat="48.59632" lon="1.96191">
        <ele>143.3</ele>
        <time>2023-01-31T10:07:50Z</time>
      </trkpt>
      <trkpt lat="48.59627" lon="1.96203">
        <ele>144.8</ele>
        <time>2023-01-31T10:07:59Z</time>
      </trkpt>
      <trkpt lat="48.59623" lon="1.96216">
        <ele>146.6</ele>
        <time>2023-01-31T10:08:09Z</time>
      </trkpt>
      <trkpt lat="48.59619" lon="1.9623">
        <ele>148.3</ele>
        <time>2023-01-31T10:08:23Z</time>
      </trkpt>
      <trkpt lat="48.59614" lon="1.96242">
        <ele>149.9</ele>
        <time>2023-01-31T10:08:32Z</time>
      </trkpt>
      <trkpt lat="48.59606" lon="1.9625">
        <ele>150.6</ele>
        <time>2023-01-31T10:08:47Z</time>
      </trkpt>
      <trkpt lat="48.59601" lon="1.96262">
        <ele>151.7</ele>
        <time>2023-01-31T10:08:58Z</time>
      </trkpt>
      <trkpt lat="48.59596" lon="1.96274">
        <ele>152.8</ele>
        <time>2023-01-31T10:09:12Z</time>
      </trkpt>
      <trkpt lat="48.59591" lon="1.96286">
        <ele>153.7</ele>
        <time>2023-01-31T10:09:22Z</time>
      </trkpt>
      <trkpt lat="48.59585" lon="1.96297">
        <ele>154.2</ele>
        <time>2023-01-31T10:09:32Z</time>
      </trkpt>
      <trkpt lat="48.59579" lon="1.96309">
        <ele>154.7</ele>
        <time>2023-01-31T10:09:42Z</time>
      </trkpt>
      <trkpt lat="48.59574" lon="1.9632">
        <ele>154.7</ele>
        <time>2023-01-31T10:09:49Z</time>
      </trkpt>
      <trkpt lat="48.59568" lon="1.96333">
        <ele>154.8</ele>
        <time>2023-01-31T10:09:57Z</time>
      </trkpt>
      <trkpt lat="48.59563" lon="1.96344">
        <ele>154.7</ele>
        <time>2023-01-31T10:10:04Z</time>
      </trkpt>
      <trkpt lat="48.59557" lon="1.96355">
        <ele>154.7</ele>
        <time>2023-01-31T10:10:11Z</time>
      </trkpt>
      <trkpt lat="48.59552" lon="1.96367">
        <ele>154.3</ele>
        <time>2023-01-31T10:10:18Z</time>
      </trkpt>
      <trkpt lat="48.59546" lon="1.96378">
        <ele>153.5</ele>
        <time>2023-01-31T10:10:26Z</time>
      </trkpt>
      <trkpt lat="48.5954" lon="1.96391">
        <ele>152.8</ele>
        <time>2023-01-31T10:10:34Z</time>
      </trkpt>
      <trkpt lat="48.59534" lon="1.96403">
        <ele>151.9</ele>
        <time>2023-01-31T10:10:42Z</time>
      </trkpt>
      <trkpt lat="48.59529" lon="1.96414">
        <ele>151.1</ele>
        <time>2023-01-31T10:10:49Z</time>
      </trkpt>
      <trkpt lat="48.59523" lon="1.96427">
        <ele>150.6</ele>
        <time>2023-01-31T10:10:57Z</time>
      </trkpt>
      <trkpt lat="48.59518" lon="1.96439">
        <ele>150</ele>
        <time>2023-01-31T10:11:04Z</time>
      </trkpt>
      <trkpt lat="48.59512" lon="1.96452">
        <ele>149.3</ele>
        <time>2023-01-31T10:11:11Z</time>
      </trkpt>
      <trkpt lat="48.59507" lon="1.96464">
        <ele>148.7</ele>
        <time>2023-01-31T10:11:18Z</time>
      </trkpt>
      <trkpt lat="48.59501" lon="1.96476">
        <ele>148.1</ele>
        <time>2023-01-31T10:11:26Z</time>
      </trkpt>
      <trkpt lat="48.59495" lon="1.96489">
        <ele>147.1</ele>
        <time>2023-01-31T10:11:34Z</time>
      </trkpt>
      <trkpt lat="48.59489" lon="1.96501">
        <ele>146.1</ele>
        <time>2023-01-31T10:11:41Z</time>
      </trkpt>
      <trkpt lat="48.59485" lon="1.96513">
        <ele>145</ele>
        <time>2023-01-31T10:11:48Z</time>
      </trkpt>
      <trkpt lat="48.5948" lon="1.96525">
        <ele>144.2</ele>
        <time>2023-01-31T10:11:55Z</time>
      </trkpt>
      <trkpt lat="48.59475" lon="1.96537">
        <ele>143.4</ele>
        <time>2023-01-31T10:12:02Z</time>
      </trkpt>
      <trkpt lat="48.5947" lon="1.96548">
        <ele>142.8</ele>
        <time>2023-01-31T10:12:09Z</time>
      </trkpt>
      <trkpt lat="48.59464" lon="1.9656">
        <ele>142.5</ele>
        <time>2023-01-31T10:12:17Z</time>
      </trkpt>
      <trkpt lat="48.59458" lon="1.96572">
        <ele>142.6</ele>
        <time>2023-01-31T10:12:25Z</time>
      </trkpt>
      <trkpt lat="48.59452" lon="1.96584">
        <ele>142.5</ele>
        <time>2023-01-31T10:12:34Z</time>
      </trkpt>
      <trkpt lat="48.59446" lon="1.96595">
        <ele>142.6</ele>
        <time>2023-01-31T10:12:42Z</time>
      </trkpt>
      <trkpt lat="48.59441" lon="1.96606">
        <ele>142.6</ele>
        <time>2023-01-31T10:12:57Z</time>
      </trkpt>
      <trkpt lat="48.59435" lon="1.96618">
        <ele>142.4</ele>
        <time>2023-01-31T10:15:07Z</time>
      </trkpt>
      <trkpt lat="48.59433" lon="1.96633">
        <ele>142.5</ele>
        <time>2023-01-31T10:15:25Z</time>
      </trkpt>
      <trkpt lat="48.59428" lon="1.96647">
        <ele>142.7</ele>
        <time>2023-01-31T10:15:32Z</time>
      </trkpt>
      <trkpt lat="48.59421" lon="1.96658">
        <ele>142.8</ele>
        <time>2023-01-31T10:15:39Z</time>
      </trkpt>
      <trkpt lat="48.59414" lon="1.96668">
        <ele>142.9</ele>
        <time>2023-01-31T10:15:46Z</time>
      </trkpt>
      <trkpt lat="48.59409" lon="1.96681">
        <ele>143</ele>
        <time>2023-01-31T10:15:53Z</time>
      </trkpt>
      <trkpt lat="48.59412" lon="1.96695">
        <ele>143.7</ele>
        <time>2023-01-31T10:16:00Z</time>
      </trkpt>
      <trkpt lat="48.59417" lon="1.96708">
        <ele>144.5</ele>
        <time>2023-01-31T10:16:08Z</time>
      </trkpt>
      <trkpt lat="48.59417" lon="1.96723">
        <ele>145</ele>
        <time>2023-01-31T10:16:16Z</time>
      </trkpt>
      <trkpt lat="48.59416" lon="1.96737">
        <ele>146.1</ele>
        <time>2023-01-31T10:16:24Z</time>
      </trkpt>
      <trkpt lat="48.5942" lon="1.96751">
        <ele>147.2</ele>
        <time>2023-01-31T10:16:32Z</time>
      </trkpt>
      <trkpt lat="48.59424" lon="1.96764">
        <ele>148.1</ele>
        <time>2023-01-31T10:16:41Z</time>
      </trkpt>
      <trkpt lat="48.5943" lon="1.96775">
        <ele>148.8</ele>
        <time>2023-01-31T10:16:49Z</time>
      </trkpt>
      <trkpt lat="48.59434" lon="1.96787">
        <ele>149.8</ele>
        <time>2023-01-31T10:16:57Z</time>
      </trkpt>
      <trkpt lat="48.59438" lon="1.968">
        <ele>150.8</ele>
        <time>2023-01-31T10:17:05Z</time>
      </trkpt>
      <trkpt lat="48.59441" lon="1.96814">
        <ele>151.7</ele>
        <time>2023-01-31T10:17:13Z</time>
      </trkpt>
      <trkpt lat="48.59445" lon="1.96826">
        <ele>152.5</ele>
        <time>2023-01-31T10:17:21Z</time>
      </trkpt>
      <trkpt lat="48.59444" lon="1.9684">
        <ele>153</ele>
        <time>2023-01-31T10:17:29Z</time>
      </trkpt>
      <trkpt lat="48.59439" lon="1.96853">
        <ele>153.5</ele>
        <time>2023-01-31T10:17:38Z</time>
      </trkpt>
      <trkpt lat="48.5943" lon="1.96857">
        <ele>154.4</ele>
        <time>2023-01-31T10:17:48Z</time>
      </trkpt>
      <trkpt lat="48.59421" lon="1.96862">
        <ele>155.6</ele>
        <time>2023-01-31T10:17:57Z</time>
      </trkpt>
      <trkpt lat="48.59414" lon="1.96873">
        <ele>155.8</ele>
        <time>2023-01-31T10:18:06Z</time>
      </trkpt>
      <trkpt lat="48.59407" lon="1.96885">
        <ele>155.6</ele>
        <time>2023-01-31T10:18:14Z</time>
      </trkpt>
      <trkpt lat="48.59404" lon="1.96898">
        <ele>155.6</ele>
        <time>2023-01-31T10:18:21Z</time>
      </trkpt>
      <trkpt lat="48.59406" lon="1.96914">
        <ele>155.6</ele>
        <time>2023-01-31T10:18:28Z</time>
      </trkpt>
      <trkpt lat="48.59409" lon="1.96928">
        <ele>156</ele>
        <time>2023-01-31T10:18:35Z</time>
      </trkpt>
      <trkpt lat="48.59411" lon="1.96943">
        <ele>156.6</ele>
        <time>2023-01-31T10:18:42Z</time>
      </trkpt>
      <trkpt lat="48.59417" lon="1.96956">
        <ele>157</ele>
        <time>2023-01-31T10:18:49Z</time>
      </trkpt>
      <trkpt lat="48.59424" lon="1.96966">
        <ele>156.5</ele>
        <time>2023-01-31T10:18:56Z</time>
      </trkpt>
      <trkpt lat="48.59426" lon="1.96981">
        <ele>156.3</ele>
        <time>2023-01-31T10:19:04Z</time>
      </trkpt>
      <trkpt lat="48.59424" lon="1.96995">
        <ele>156.5</ele>
        <time>2023-01-31T10:19:11Z</time>
      </trkpt>
      <trkpt lat="48.59421" lon="1.97008">
        <ele>156.7</ele>
        <time>2023-01-31T10:19:18Z</time>
      </trkpt>
      <trkpt lat="48.5942" lon="1.97023">
        <ele>156.9</ele>
        <time>2023-01-31T10:19:25Z</time>
      </trkpt>
      <trkpt lat="48.59423" lon="1.97037">
        <ele>157.1</ele>
        <time>2023-01-31T10:19:32Z</time>
      </trkpt>
      <trkpt lat="48.59426" lon="1.9705">
        <ele>157.5</ele>
        <time>2023-01-31T10:19:38Z</time>
      </trkpt>
      <trkpt lat="48.59429" lon="1.97065">
        <ele>157.7</ele>
        <time>2023-01-31T10:19:45Z</time>
      </trkpt>
      <trkpt lat="48.59432" lon="1.97079">
        <ele>157.9</ele>
        <time>2023-01-31T10:19:52Z</time>
      </trkpt>
      <trkpt lat="48.59437" lon="1.97092">
        <ele>158</ele>
        <time>2023-01-31T10:19:59Z</time>
      </trkpt>
      <trkpt lat="48.59438" lon="1.97106">
        <ele>158</ele>
        <time>2023-01-31T10:20:05Z</time>
      </trkpt>
      <trkpt lat="48.59438" lon="1.9712">
        <ele>158.2</ele>
        <time>2023-01-31T10:20:11Z</time>
      </trkpt>
      <trkpt lat="48.59437" lon="1.97135">
        <ele>158.7</ele>
        <time>2023-01-31T10:20:18Z</time>
      </trkpt>
      <trkpt lat="48.59438" lon="1.9715">
        <ele>158.4</ele>
        <time>2023-01-31T10:20:25Z</time>
      </trkpt>
      <trkpt lat="48.59442" lon="1.97163">
        <ele>158</ele>
        <time>2023-01-31T10:20:32Z</time>
      </trkpt>
      <trkpt lat="48.59445" lon="1.97177">
        <ele>158</ele>
        <time>2023-01-31T10:20:39Z</time>
      </trkpt>
      <trkpt lat="48.59445" lon="1.97191">
        <ele>158</ele>
        <time>2023-01-31T10:20:46Z</time>
      </trkpt>
      <trkpt lat="48.59438" lon="1.97201">
        <ele>157.1</ele>
        <time>2023-01-31T10:20:53Z</time>
      </trkpt>
      <trkpt lat="48.59431" lon="1.97213">
        <ele>156</ele>
        <time>2023-01-31T10:21:01Z</time>
      </trkpt>
      <trkpt lat="48.59429" lon="1.97227">
        <ele>155</ele>
        <time>2023-01-31T10:21:09Z</time>
      </trkpt>
      <trkpt lat="48.59426" lon="1.9724">
        <ele>153.6</ele>
        <time>2023-01-31T10:21:20Z</time>
      </trkpt>
      <trkpt lat="48.59432" lon="1.97251">
        <ele>152.9</ele>
        <time>2023-01-31T10:21:30Z</time>
      </trkpt>
      <trkpt lat="48.59438" lon="1.97263">
        <ele>151.7</ele>
        <time>2023-01-31T10:21:40Z</time>
      </trkpt>
      <trkpt lat="48.59444" lon="1.97272">
        <ele>150.8</ele>
        <time>2023-01-31T10:21:49Z</time>
      </trkpt>
      <trkpt lat="48.59451" lon="1.97284">
        <ele>149.1</ele>
        <time>2023-01-31T10:21:59Z</time>
      </trkpt>
      <trkpt lat="48.59458" lon="1.97293">
        <ele>147.7</ele>
        <time>2023-01-31T10:22:10Z</time>
      </trkpt>
      <trkpt lat="48.59463" lon="1.97305">
        <ele>146.4</ele>
        <time>2023-01-31T10:22:19Z</time>
      </trkpt>
      <trkpt lat="48.59464" lon="1.97319">
        <ele>144.5</ele>
        <time>2023-01-31T10:22:31Z</time>
      </trkpt>
      <trkpt lat="48.59463" lon="1.97333">
        <ele>142.4</ele>
        <time>2023-01-31T10:22:42Z</time>
      </trkpt>
      <trkpt lat="48.59465" lon="1.97347">
        <ele>140.9</ele>
        <time>2023-01-31T10:22:53Z</time>
      </trkpt>
      <trkpt lat="48.59469" lon="1.9736">
        <ele>139.8</ele>
        <time>2023-01-31T10:23:03Z</time>
      </trkpt>
      <trkpt lat="48.59472" lon="1.97373">
        <ele>139.1</ele>
        <time>2023-01-31T10:23:12Z</time>
      </trkpt>
      <trkpt lat="48.59474" lon="1.97387">
        <ele>138.2</ele>
        <time>2023-01-31T10:23:21Z</time>
      </trkpt>
      <trkpt lat="48.59477" lon="1.97399">
        <ele>138.1</ele>
        <time>2023-01-31T10:23:29Z</time>
      </trkpt>
      <trkpt lat="48.59481" lon="1.97412">
        <ele>138</ele>
        <time>2023-01-31T10:23:38Z</time>
      </trkpt>
      <trkpt lat="48.59482" lon="1.97426">
        <ele>138</ele>
        <time>2023-01-31T10:24:41Z</time>
      </trkpt>
      <trkpt lat="48.59474" lon="1.97431">
        <ele>138</ele>
        <time>2023-01-31T10:24:51Z</time>
      </trkpt>
      <trkpt lat="48.59464" lon="1.97433">
        <ele>137.6</ele>
        <time>2023-01-31T10:25:01Z</time>
      </trkpt>
      <trkpt lat="48.59454" lon="1.97429">
        <ele>137</ele>
        <time>2023-01-31T10:25:12Z</time>
      </trkpt>
      <trkpt lat="48.59445" lon="1.97425">
        <ele>136.3</ele>
        <time>2023-01-31T10:25:22Z</time>
      </trkpt>
      <trkpt lat="48.59436" lon="1.97422">
        <ele>135.6</ele>
        <time>2023-01-31T10:25:31Z</time>
      </trkpt>
      <trkpt lat="48.59427" lon="1.9742">
        <ele>134.9</ele>
        <time>2023-01-31T10:25:39Z</time>
      </trkpt>
      <trkpt lat="48.59417" lon="1.97422">
        <ele>134.2</ele>
        <time>2023-01-31T10:25:47Z</time>
      </trkpt>
      <trkpt lat="48.59408" lon="1.9742">
        <ele>133.5</ele>
        <time>2023-01-31T10:25:56Z</time>
      </trkpt>
      <trkpt lat="48.59399" lon="1.97421">
        <ele>133</ele>
        <time>2023-01-31T10:26:05Z</time>
      </trkpt>
      <trkpt lat="48.59389" lon="1.97418">
        <ele>132.1</ele>
        <time>2023-01-31T10:26:13Z</time>
      </trkpt>
      <trkpt lat="48.59381" lon="1.97414">
        <ele>131.4</ele>
        <time>2023-01-31T10:26:22Z</time>
      </trkpt>
      <trkpt lat="48.59371" lon="1.97415">
        <ele>130.7</ele>
        <time>2023-01-31T10:26:30Z</time>
      </trkpt>
      <trkpt lat="48.59362" lon="1.97415">
        <ele>130</ele>
        <time>2023-01-31T10:26:37Z</time>
      </trkpt>
      <trkpt lat="48.59352" lon="1.97414">
        <ele>129.6</ele>
        <time>2023-01-31T10:26:45Z</time>
      </trkpt>
      <trkpt lat="48.59342" lon="1.97415">
        <ele>129.3</ele>
        <time>2023-01-31T10:26:53Z</time>
      </trkpt>
      <trkpt lat="48.59332" lon="1.97415">
        <ele>128.8</ele>
        <time>2023-01-31T10:27:01Z</time>
      </trkpt>
      <trkpt lat="48.59322" lon="1.97417">
        <ele>128.2</ele>
        <time>2023-01-31T10:27:08Z</time>
      </trkpt>
      <trkpt lat="48.59312" lon="1.97418">
        <ele>127.6</ele>
        <time>2023-01-31T10:27:15Z</time>
      </trkpt>
      <trkpt lat="48.59302" lon="1.97418">
        <ele>126.9</ele>
        <time>2023-01-31T10:27:24Z</time>
      </trkpt>
      <trkpt lat="48.59293" lon="1.9742">
        <ele>126.3</ele>
        <time>2023-01-31T10:27:31Z</time>
      </trkpt>
      <trkpt lat="48.59284" lon="1.97419">
        <ele>125.6</ele>
        <time>2023-01-31T10:27:40Z</time>
      </trkpt>
      <trkpt lat="48.59274" lon="1.97421">
        <ele>124.8</ele>
        <time>2023-01-31T10:27:48Z</time>
      </trkpt>
      <trkpt lat="48.59265" lon="1.97422">
        <ele>123.8</ele>
        <time>2023-01-31T10:27:55Z</time>
      </trkpt>
      <trkpt lat="48.59255" lon="1.97422">
        <ele>122.7</ele>
        <time>2023-01-31T10:28:03Z</time>
      </trkpt>
      <trkpt lat="48.59246" lon="1.97424">
        <ele>122.1</ele>
        <time>2023-01-31T10:28:10Z</time>
      </trkpt>
      <trkpt lat="48.59236" lon="1.97423">
        <ele>121.7</ele>
        <time>2023-01-31T10:28:18Z</time>
      </trkpt>
      <trkpt lat="48.59227" lon="1.97419">
        <ele>121.3</ele>
        <time>2023-01-31T10:28:26Z</time>
      </trkpt>
      <trkpt lat="48.59218" lon="1.97413">
        <ele>120.6</ele>
        <time>2023-01-31T10:28:33Z</time>
      </trkpt>
      <trkpt lat="48.5921" lon="1.97407">
        <ele>119.8</ele>
        <time>2023-01-31T10:28:40Z</time>
      </trkpt>
      <trkpt lat="48.59202" lon="1.97399">
        <ele>118.9</ele>
        <time>2023-01-31T10:28:47Z</time>
      </trkpt>
      <trkpt lat="48.59193" lon="1.97392">
        <ele>118.1</ele>
        <time>2023-01-31T10:28:54Z</time>
      </trkpt>
      <trkpt lat="48.59183" lon="1.97386">
        <ele>117.6</ele>
        <time>2023-01-31T10:29:01Z</time>
      </trkpt>
      <trkpt lat="48.59175" lon="1.97379">
        <ele>117.1</ele>
        <time>2023-01-31T10:29:07Z</time>
      </trkpt>
      <trkpt lat="48.59168" lon="1.97371">
        <ele>116.4</ele>
        <time>2023-01-31T10:29:14Z</time>
      </trkpt>
      <trkpt lat="48.59159" lon="1.97365">
        <ele>115.9</ele>
        <time>2023-01-31T10:29:21Z</time>
      </trkpt>
      <trkpt lat="48.5915" lon="1.97358">
        <ele>115.4</ele>
        <time>2023-01-31T10:29:28Z</time>
      </trkpt>
      <trkpt lat="48.59141" lon="1.97352">
        <ele>115.1</ele>
        <time>2023-01-31T10:29:35Z</time>
      </trkpt>
      <trkpt lat="48.59132" lon="1.97346">
        <ele>114.8</ele>
        <time>2023-01-31T10:29:42Z</time>
      </trkpt>
      <trkpt lat="48.59125" lon="1.97335">
        <ele>114.5</ele>
        <time>2023-01-31T10:29:50Z</time>
      </trkpt>
      <trkpt lat="48.59116" lon="1.97329">
        <ele>114.2</ele>
        <time>2023-01-31T10:29:57Z</time>
      </trkpt>
      <trkpt lat="48.59109" lon="1.97319">
        <ele>114</ele>
        <time>2023-01-31T10:30:05Z</time>
      </trkpt>
      <trkpt lat="48.59101" lon="1.97313">
        <ele>114</ele>
        <time>2023-01-31T10:30:11Z</time>
      </trkpt>
      <trkpt lat="48.59092" lon="1.97306">
        <ele>114</ele>
        <time>2023-01-31T10:30:18Z</time>
      </trkpt>
      <trkpt lat="48.59083" lon="1.97299">
        <ele>113.8</ele>
        <time>2023-01-31T10:30:26Z</time>
      </trkpt>
      <trkpt lat="48.59075" lon="1.97291">
        <ele>113.3</ele>
        <time>2023-01-31T10:30:34Z</time>
      </trkpt>
      <trkpt lat="48.59067" lon="1.97282">
        <ele>113.1</ele>
        <time>2023-01-31T10:30:42Z</time>
      </trkpt>
      <trkpt lat="48.59058" lon="1.97275">
        <ele>113</ele>
        <time>2023-01-31T10:30:49Z</time>
      </trkpt>
      <trkpt lat="48.59049" lon="1.97269">
        <ele>112.8</ele>
        <time>2023-01-31T10:30:56Z</time>
      </trkpt>
      <trkpt lat="48.59041" lon="1.9726">
        <ele>112.5</ele>
        <time>2023-01-31T10:31:03Z</time>
      </trkpt>
      <trkpt lat="48.59032" lon="1.97255">
        <ele>112.1</ele>
        <time>2023-01-31T10:31:11Z</time>
      </trkpt>
      <trkpt lat="48.59026" lon="1.97243">
        <ele>112</ele>
        <time>2023-01-31T10:31:19Z</time>
      </trkpt>
      <trkpt lat="48.59027" lon="1.97229">
        <ele>112</ele>
        <time>2023-01-31T10:31:26Z</time>
      </trkpt>
      <trkpt lat="48.59027" lon="1.97214">
        <ele>112.3</ele>
        <time>2023-01-31T10:31:33Z</time>
      </trkpt>
      <trkpt lat="48.59029" lon="1.97199">
        <ele>112.8</ele>
        <time>2023-01-31T10:31:40Z</time>
      </trkpt>
      <trkpt lat="48.59031" lon="1.97186">
        <ele>113</ele>
        <time>2023-01-31T10:31:47Z</time>
      </trkpt>
      <trkpt lat="48.59031" lon="1.97171">
        <ele>113</ele>
        <time>2023-01-31T10:31:53Z</time>
      </trkpt>
      <trkpt lat="48.59033" lon="1.97157">
        <ele>113</ele>
        <time>2023-01-31T10:31:59Z</time>
      </trkpt>
      <trkpt lat="48.59035" lon="1.97144">
        <ele>113</ele>
        <time>2023-01-31T10:32:06Z</time>
      </trkpt>
      <trkpt lat="48.59039" lon="1.97129">
        <ele>113</ele>
        <time>2023-01-31T10:32:14Z</time>
      </trkpt>
      <trkpt lat="48.59042" lon="1.97115">
        <ele>113</ele>
        <time>2023-01-31T10:32:21Z</time>
      </trkpt>
      <trkpt lat="48.59046" lon="1.97102">
        <ele>113</ele>
        <time>2023-01-31T10:32:29Z</time>
      </trkpt>
      <trkpt lat="48.59049" lon="1.97087">
        <ele>113</ele>
        <time>2023-01-31T10:32:37Z</time>
      </trkpt>
      <trkpt lat="48.59049" lon="1.97073">
        <ele>113</ele>
        <time>2023-01-31T10:32:44Z</time>
      </trkpt>
      <trkpt lat="48.59051" lon="1.97057">
        <ele>113</ele>
        <time>2023-01-31T10:32:51Z</time>
      </trkpt>
      <trkpt lat="48.59056" lon="1.97043">
        <ele>113</ele>
        <time>2023-01-31T10:32:59Z</time>
      </trkpt>
      <trkpt lat="48.5906" lon="1.97029">
        <ele>113.1</ele>
        <time>2023-01-31T10:33:07Z</time>
      </trkpt>
      <trkpt lat="48.59065" lon="1.97016">
        <ele>113.2</ele>
        <time>2023-01-31T10:33:16Z</time>
      </trkpt>
      <trkpt lat="48.59067" lon="1.97002">
        <ele>113</ele>
        <time>2023-01-31T10:33:24Z</time>
      </trkpt>
      <trkpt lat="48.59071" lon="1.96988">
        <ele>113</ele>
        <time>2023-01-31T10:33:32Z</time>
      </trkpt>
      <trkpt lat="48.59072" lon="1.96974">
        <ele>113</ele>
        <time>2023-01-31T10:33:39Z</time>
      </trkpt>
      <trkpt lat="48.59076" lon="1.96962">
        <ele>113</ele>
        <time>2023-01-31T10:33:46Z</time>
      </trkpt>
      <trkpt lat="48.5908" lon="1.96948">
        <ele>113</ele>
        <time>2023-01-31T10:33:54Z</time>
      </trkpt>
      <trkpt lat="48.59083" lon="1.96934">
        <ele>113</ele>
        <time>2023-01-31T10:34:01Z</time>
      </trkpt>
      <trkpt lat="48.59085" lon="1.9692">
        <ele>113.1</ele>
        <time>2023-01-31T10:34:09Z</time>
      </trkpt>
      <trkpt lat="48.59089" lon="1.96906">
        <ele>113.1</ele>
        <time>2023-01-31T10:34:16Z</time>
      </trkpt>
      <trkpt lat="48.59093" lon="1.96891">
        <ele>113</ele>
        <time>2023-01-31T10:34:24Z</time>
      </trkpt>
      <trkpt lat="48.59099" lon="1.9688">
        <ele>113</ele>
        <time>2023-01-31T10:34:32Z</time>
      </trkpt>
      <trkpt lat="48.59103" lon="1.96867">
        <ele>113</ele>
        <time>2023-01-31T10:34:40Z</time>
      </trkpt>
      <trkpt lat="48.59105" lon="1.96852">
        <ele>113</ele>
        <time>2023-01-31T10:34:48Z</time>
      </trkpt>
      <trkpt lat="48.59108" lon="1.96838">
        <ele>113</ele>
        <time>2023-01-31T10:34:55Z</time>
      </trkpt>
      <trkpt lat="48.59112" lon="1.96823">
        <ele>113.1</ele>
        <time>2023-01-31T10:35:02Z</time>
      </trkpt>
      <trkpt lat="48.59118" lon="1.96811">
        <ele>113.5</ele>
        <time>2023-01-31T10:35:10Z</time>
      </trkpt>
      <trkpt lat="48.59121" lon="1.96797">
        <ele>113.7</ele>
        <time>2023-01-31T10:35:18Z</time>
      </trkpt>
      <trkpt lat="48.59126" lon="1.96785">
        <ele>114.1</ele>
        <time>2023-01-31T10:35:26Z</time>
      </trkpt>
      <trkpt lat="48.5913" lon="1.96773">
        <ele>114.3</ele>
        <time>2023-01-31T10:35:32Z</time>
      </trkpt>
      <trkpt lat="48.59136" lon="1.96762">
        <ele>114.3</ele>
        <time>2023-01-31T10:35:39Z</time>
      </trkpt>
      <trkpt lat="48.59139" lon="1.96748">
        <ele>114</ele>
        <time>2023-01-31T10:35:46Z</time>
      </trkpt>
      <trkpt lat="48.59142" lon="1.96734">
        <ele>114.3</ele>
        <time>2023-01-31T10:35:53Z</time>
      </trkpt>
      <trkpt lat="48.59146" lon="1.96721">
        <ele>114.5</ele>
        <time>2023-01-31T10:36:00Z</time>
      </trkpt>
      <trkpt lat="48.59144" lon="1.96707">
        <ele>114.4</ele>
        <time>2023-01-31T10:36:10Z</time>
      </trkpt>
      <trkpt lat="48.59152" lon="1.96698">
        <ele>114.9</ele>
        <time>2023-01-31T10:36:21Z</time>
      </trkpt>
      <trkpt lat="48.59151" lon="1.96684">
        <ele>114.8</ele>
        <time>2023-01-31T10:36:29Z</time>
      </trkpt>
      <trkpt lat="48.59151" lon="1.96669">
        <ele>114.9</ele>
        <time>2023-01-31T10:36:36Z</time>
      </trkpt>
      <trkpt lat="48.59151" lon="1.96655">
        <ele>114.9</ele>
        <time>2023-01-31T10:36:43Z</time>
      </trkpt>
      <trkpt lat="48.59152" lon="1.96641">
        <ele>115</ele>
        <time>2023-01-31T10:36:51Z</time>
      </trkpt>
      <trkpt lat="48.59148" lon="1.96628">
        <ele>114.9</ele>
        <time>2023-01-31T10:37:04Z</time>
      </trkpt>
      <trkpt lat="48.59149" lon="1.96644">
        <ele>114.8</ele>
        <time>2023-01-31T10:37:14Z</time>
      </trkpt>
      <trkpt lat="48.59152" lon="1.96657">
        <ele>114.9</ele>
        <time>2023-01-31T10:37:25Z</time>
      </trkpt>
      <trkpt lat="48.59155" lon="1.96644">
        <ele>115.1</ele>
        <time>2023-01-31T10:38:25Z</time>
      </trkpt>
      <trkpt lat="48.59157" lon="1.96631">
        <ele>115.4</ele>
        <time>2023-01-31T10:38:34Z</time>
      </trkpt>
      <trkpt lat="48.59166" lon="1.96628">
        <ele>115.9</ele>
        <time>2023-01-31T10:38:44Z</time>
      </trkpt>
      <trkpt lat="48.5917" lon="1.96616">
        <ele>116.2</ele>
        <time>2023-01-31T10:38:52Z</time>
      </trkpt>
      <trkpt lat="48.59172" lon="1.96602">
        <ele>116.2</ele>
        <time>2023-01-31T10:40:13Z</time>
      </trkpt>
      <trkpt lat="48.59181" lon="1.96597">
        <ele>116.5</ele>
        <time>2023-01-31T10:40:18Z</time>
      </trkpt>
      <trkpt lat="48.59179" lon="1.96611">
        <ele>116.4</ele>
        <time>2023-01-31T10:43:35Z</time>
      </trkpt>
      <trkpt lat="48.59182" lon="1.96599">
        <ele>116.6</ele>
        <time>2023-01-31T10:46:46Z</time>
      </trkpt>
    </trkseg>
  </trk>
</gpx>